Wetterdaten: Montag, 29.04.2013
Datum Zeit Temp. Aussen +5cm Feuchte Auss Luftdruck Regen Sonnenschein Regendauer UV Solar Windben
29.04.2013 00:00 8,0 C 6,2 C 82 % 1014,7 hPa 0,0 l/m 0 min 0 min 0,0 UV-I 0 W/m 0,0 km/h (0 Bft)
29.04.2013 00:02 8,0 C 6,2 C 82 % 1014,8 hPa 0,0 l/m 0 min 0 min 0,0 UV-I 0 W/m 0,0 km/h (0 Bft)
29.04.2013 00:06 7,9 C 6,2 C 82 % 1014,8 hPa 0,0 l/m 0 min 0 min 0,0 UV-I 0 W/m 0,0 km/h (0 Bft)
29.04.2013 00:08 7,9 C 6,2 C 82 % 1014,8 hPa 0,0 l/m 0 min 0 min 0,0 UV-I 0 W/m 0,0 km/h (0 Bft)
29.04.2013 00:10 7,9 C 6,2 C 82 % 1014,9 hPa 0,0 l/m 0 min 0 min 0,0 UV-I 0 W/m 0,0 km/h (0 Bft)
29.04.2013 00:12 7,8 C 6,2 C 82 % 1014,8 hPa 0,0 l/m 0 min 0 min 0,0 UV-I 0 W/m 0,0 km/h (0 Bft)
29.04.2013 00:14 7,8 C 6,2 C 83 % 1014,8 hPa 0,0 l/m 0 min 0 min 0,0 UV-I 0 W/m 0,0 km/h (0 Bft)
29.04.2013 00:16 7,8 C 6,2 C 83 % 1014,8 hPa 0,0 l/m 0 min 0 min 0,0 UV-I 0 W/m 0,0 km/h (0 Bft)
29.04.2013 00:18 7,8 C 6,2 C 83 % 1014,8 hPa 0,0 l/m 0 min 0 min 0,0 UV-I 0 W/m 5,1 km/h (1 Bft)
29.04.2013 00:20 7,7 C 6,2 C 83 % 1014,8 hPa 0,0 l/m 0 min 0 min 0,0 UV-I 0 W/m 0,0 km/h (0 Bft)
29.04.2013 00:22 7,7 C 6,2 C 83 % 1014,8 hPa 0,0 l/m 0 min 0 min 0,0 UV-I 0 W/m 7,7 km/h (2 Bft)
29.04.2013 00:24 7,7 C 6,2 C 83 % 1014,8 hPa 0,0 l/m 0 min 0 min 0,0 UV-I 0 W/m 0,0 km/h (0 Bft)
29.04.2013 00:26 7,7 C 6,2 C 83 % 1014,9 hPa 0,0 l/m 0 min 0 min 0,0 UV-I 0 W/m 0,0 km/h (0 Bft)
29.04.2013 00:28 7,7 C 6,2 C 84 % 1014,9 hPa 0,0 l/m 0 min 0 min 0,0 UV-I 0 W/m 0,0 km/h (0 Bft)
29.04.2013 00:30 7,6 C 6,2 C 84 % 1015,0 hPa 0,0 l/m 0 min 0 min 0,0 UV-I 0 W/m 0,0 km/h (0 Bft)
29.04.2013 00:32 7,6 C 6,2 C 84 % 1015,0 hPa 0,0 l/m 0 min 0 min 0,0 UV-I 0 W/m 7,7 km/h (2 Bft)
29.04.2013 00:34 7,6 C 6,2 C 84 % 1015,0 hPa 0,0 l/m 0 min 0 min 0,0 UV-I 0 W/m 2,6 km/h (1 Bft)
29.04.2013 00:36 7,6 C 6,2 C 84 % 1015,0 hPa 0,0 l/m 0 min 0 min 0,0 UV-I 0 W/m 0,0 km/h (0 Bft)
29.04.2013 00:38 7,6 C 6,2 C 84 % 1015,0 hPa 0,0 l/m 0 min 0 min 0,0 UV-I 0 W/m 2,6 km/h (1 Bft)
29.04.2013 00:40 7,6 C 6,2 C 84 % 1014,9 hPa 0,0 l/m 0 min 0 min 0,0 UV-I 0 W/m 2,6 km/h (1 Bft)
29.04.2013 00:42 7,5 C 6,2 C 84 % 1014,9 hPa 0,0 l/m 0 min 0 min 0,0 UV-I 0 W/m 12,9 km/h (3 Bft)
29.04.2013 00:44 7,5 C 6,2 C 84 % 1015,0 hPa 0,0 l/m 0 min 0 min 0,0 UV-I 0 W/m 0,0 km/h (0 Bft)
29.04.2013 00:46 7,5 C 6,2 C 84 % 1014,9 hPa 0,0 l/m 0 min 0 min 0,0 UV-I 0 W/m 0,0 km/h (0 Bft)
29.04.2013 00:48 7,5 C 6,2 C 84 % 1015,0 hPa 0,0 l/m 0 min 0 min 0,0 UV-I 0 W/m 0,0 km/h (0 Bft)
29.04.2013 00:50 7,4 C 6,2 C 84 % 1014,9 hPa 0,0 l/m 0 min 0 min 0,0 UV-I 0 W/m 5,1 km/h (1 Bft)
29.04.2013 00:52 7,4 C 6,2 C 84 % 1014,8 hPa 0,0 l/m 0 min 0 min 0,0 UV-I 0 W/m 0,0 km/h (0 Bft)
29.04.2013 00:54 7,4 C 5,7 C 85 % 1014,8 hPa 0,0 l/m 0 min 0 min 0,0 UV-I 0 W/m 0,0 km/h (0 Bft)
29.04.2013 00:56 7,4 C 5,7 C 85 % 1014,8 hPa 0,0 l/m 0 min 0 min 0,0 UV-I 0 W/m 2,6 km/h (1 Bft)
29.04.2013 00:58 7,4 C 5,7 C 85 % 1014,8 hPa 0,0 l/m 0 min 0 min 0,0 UV-I 0 W/m 0,0 km/h (0 Bft)
29.04.2013 01:00 7,4 C 5,7 C 85 % 1014,9 hPa 0,0 l/m 0 min 0 min 0,0 UV-I 0 W/m 0,0 km/h (0 Bft)
29.04.2013 01:02 7,4 C 5,7 C 85 % 1014,9 hPa 0,0 l/m 0 min 0 min 0,0 UV-I 0 W/m 2,6 km/h (1 Bft)
29.04.2013 01:04 7,3 C 5,7 C 85 % 1014,8 hPa 0,0 l/m 0 min 0 min 0,0 UV-I 0 W/m 0,0 km/h (0 Bft)
29.04.2013 01:06 7,3 C 5,7 C 85 % 1014,9 hPa 0,0 l/m 0 min 0 min 0,0 UV-I 0 W/m 5,1 km/h (1 Bft)
29.04.2013 01:08 7,3 C 5,7 C 85 % 1014,8 hPa 0,0 l/m 0 min 0 min 0,0 UV-I 0 W/m 5,1 km/h (1 Bft)
29.04.2013 01:10 7,3 C 5,7 C 85 % 1014,8 hPa 0,0 l/m 0 min 0 min 0,0 UV-I 0 W/m 0,0 km/h (0 Bft)
29.04.2013 01:12 7,3 C 5,7 C 85 % 1014,8 hPa 0,0 l/m 0 min 0 min 0,0 UV-I 0 W/m 0,0 km/h (0 Bft)
29.04.2013 01:14 7,3 C 5,7 C 85 % 1014,8 hPa 0,0 l/m 0 min 0 min 0,0 UV-I 0 W/m 0,0 km/h (0 Bft)
29.04.2013 01:16 7,2 C 5,7 C 85 % 1014,8 hPa 0,0 l/m 0 min 0 min 0,0 UV-I 0 W/m 0,0 km/h (0 Bft)
29.04.2013 01:18 7,2 C 5,7 C 85 % 1014,7 hPa 0,0 l/m 0 min 0 min 0,0 UV-I 0 W/m 0,0 km/h (0 Bft)
29.04.2013 01:20 7,2 C 5,7 C 85 % 1014,8 hPa 0,0 l/m 0 min 0 min 0,0 UV-I 0 W/m 7,7 km/h (2 Bft)
29.04.2013 01:22 7,2 C 5,7 C 85 % 1014,8 hPa 0,0 l/m 0 min 0 min 0,0 UV-I 0 W/m 0,0 km/h (0 Bft)
29.04.2013 01:24 7,2 C 5,7 C 85 % 1014,8 hPa 0,0 l/m 0 min 0 min 0,0 UV-I 0 W/m 7,7 km/h (2 Bft)
29.04.2013 01:26 7,2 C 5,7 C 85 % 1014,7 hPa 0,0 l/m 0 min 0 min 0,0 UV-I 0 W/m 5,1 km/h (1 Bft)
29.04.2013 01:28 7,2 C 5,7 C 85 % 1014,6 hPa 0,0 l/m 0 min 0 min 0,0 UV-I 0 W/m 2,6 km/h (1 Bft)
29.04.2013 01:30 7,2 C 5,7 C 86 % 1014,7 hPa 0,0 l/m 0 min 0 min 0,0 UV-I 0 W/m 0,0 km/h (0 Bft)
29.04.2013 01:32 7,2 C 5,7 C 86 % 1014,7 hPa 0,0 l/m 0 min 0 min 0,0 UV-I 0 W/m 0,0 km/h (0 Bft)
29.04.2013 01:34 7,1 C 5,7 C 86 % 1014,7 hPa 0,0 l/m 0 min 0 min 0,0 UV-I 0 W/m 0,0 km/h (0 Bft)
29.04.2013 01:36 7,1 C 5,7 C 86 % 1014,7 hPa 0,0 l/m 0 min 0 min 0,0 UV-I 0 W/m 2,6 km/h (1 Bft)
29.04.2013 01:38 7,1 C 5,7 C 85 % 1014,7 hPa 0,0 l/m 0 min 0 min 0,0 UV-I 0 W/m 5,1 km/h (1 Bft)
29.04.2013 01:40 7,1 C 5,7 C 86 % 1014,7 hPa 0,0 l/m 0 min 0 min 0,0 UV-I 0 W/m 0,0 km/h (0 Bft)
29.04.2013 01:42 7,0 C 5,7 C 86 % 1014,7 hPa 0,0 l/m 0 min 0 min 0,0 UV-I 0 W/m 10,3 km/h (2 Bft)
29.04.2013 01:44 7,0 C 5,7 C 86 % 1014,6 hPa 0,0 l/m 0 min 0 min 0,0 UV-I 0 W/m 0,0 km/h (0 Bft)
29.04.2013 01:46 7,0 C 5,7 C 86 % 1014,7 hPa 0,0 l/m 0 min 0 min 0,0 UV-I 0 W/m 2,6 km/h (1 Bft)
29.04.2013 01:48 7,0 C 5,7 C 86 % 1014,7 hPa 0,0 l/m 0 min 0 min 0,0 UV-I 0 W/m 0,0 km/h (0 Bft)
29.04.2013 01:50 6,9 C 5,7 C 86 % 1014,7 hPa 0,0 l/m 0 min 0 min 0,0 UV-I 0 W/m 5,1 km/h (1 Bft)
29.04.2013 01:52 6,9 C 5,7 C 86 % 1014,7 hPa 0,0 l/m 0 min 0 min 0,0 UV-I 0 W/m 2,6 km/h (1 Bft)
29.04.2013 01:54 6,9 C 5,7 C 86 % 1014,7 hPa 0,0 l/m 0 min 0 min 0,0 UV-I 0 W/m 5,1 km/h (1 Bft)
29.04.2013 01:56 6,9 C 5,7 C 86 % 1014,7 hPa 0,0 l/m 0 min 0 min 0,0 UV-I 0 W/m 2,6 km/h (1 Bft)
29.04.2013 01:58 6,9 C 5,7 C 86 % 1014,7 hPa 0,0 l/m 0 min 0 min 0,0 UV-I 0 W/m 7,7 km/h (2 Bft)
29.04.2013 02:00 6,9 C 5,7 C 87 % 1014,7 hPa 0,0 l/m 0 min 0 min 0,0 UV-I 0 W/m 0,0 km/h (0 Bft)
29.04.2013 02:02 6,9 C 5,7 C 87 % 1014,7 hPa 0,0 l/m 0 min 0 min 0,0 UV-I 0 W/m 0,0 km/h (0 Bft)
29.04.2013 02:04 6,9 C 5,7 C 87 % 1014,7 hPa 0,0 l/m 0 min 0 min 0,0 UV-I 0 W/m 0,0 km/h (0 Bft)
29.04.2013 02:06 6,9 C 5,7 C 87 % 1014,7 hPa 0,0 l/m 0 min 0 min 0,0 UV-I 0 W/m 0,0 km/h (0 Bft)
29.04.2013 02:08 6,9 C 5,7 C 87 % 1014,7 hPa 0,0 l/m 0 min 0 min 0,0 UV-I 0 W/m 0,0 km/h (0 Bft)
29.04.2013 02:10 6,9 C 6,2 C 87 % 1014,7 hPa 0,0 l/m 0 min 0 min 0,0 UV-I 0 W/m 0,0 km/h (0 Bft)
29.04.2013 02:12 6,9 C 6,2 C 87 % 1014,6 hPa 0,0 l/m 0 min 0 min 0,0 UV-I 0 W/m 2,6 km/h (1 Bft)
29.04.2013 02:14 6,9 C 6,2 C 87 % 1014,7 hPa 0,0 l/m 0 min 0 min 0,0 UV-I 0 W/m 0,0 km/h (0 Bft)
29.04.2013 02:16 6,9 C 6,2 C 87 % 1014,6 hPa 0,0 l/m 0 min 0 min 0,0 UV-I 0 W/m 7,7 km/h (2 Bft)
29.04.2013 02:18 6,9 C 6,2 C 87 % 1014,7 hPa 0,0 l/m 0 min 0 min 0,0 UV-I 0 W/m 2,6 km/h (1 Bft)
29.04.2013 02:20 6,9 C 6,2 C 87 % 1014,7 hPa 0,0 l/m 0 min 0 min 0,0 UV-I 0 W/m 2,6 km/h (1 Bft)
29.04.2013 02:22 7,0 C 6,2 C 87 % 1014,7 hPa 0,0 l/m 0 min 0 min 0,0 UV-I 0 W/m 0,0 km/h (0 Bft)
29.04.2013 02:24 7,0 C 6,2 C 87 % 1014,7 hPa 0,0 l/m 0 min 0 min 0,0 UV-I 0 W/m 10,3 km/h (2 Bft)
29.04.2013 02:26 7,0 C 6,2 C 87 % 1014,7 hPa 0,0 l/m 0 min 0 min 0,0 UV-I 0 W/m 2,6 km/h (1 Bft)
29.04.2013 02:28 7,1 C 6,2 C 87 % 1014,6 hPa 0,0 l/m 0 min 0 min 0,0 UV-I 0 W/m 7,7 km/h (2 Bft)
29.04.2013 02:30 7,1 C 6,2 C 87 % 1014,6 hPa 0,0 l/m 0 min 0 min 0,0 UV-I 0 W/m 7,7 km/h (2 Bft)
29.04.2013 02:32 7,1 C 6,2 C 86 % 1014,6 hPa 0,0 l/m 0 min 0 min 0,0 UV-I 0 W/m 5,1 km/h (1 Bft)
29.04.2013 02:34 7,1 C 6,2 C 86 % 1014,5 hPa 0,0 l/m 0 min 0 min 0,0 UV-I 0 W/m 5,1 km/h (1 Bft)
29.04.2013 02:36 7,1 C 6,2 C 86 % 1014,6 hPa 0,0 l/m 0 min 0 min 0,0 UV-I 0 W/m 7,7 km/h (2 Bft)
29.04.2013 02:38 7,2 C 6,2 C 86 % 1014,6 hPa 0,0 l/m 0 min 0 min 0,0 UV-I 0 W/m 7,7 km/h (2 Bft)
29.04.2013 02:40 7,2 C 6,2 C 86 % 1014,5 hPa 0,0 l/m 0 min 0 min 0,0 UV-I 0 W/m 0,0 km/h (0 Bft)
29.04.2013 02:42 7,2 C 6,2 C 86 % 1014,5 hPa 0,0 l/m 0 min 0 min 0,0 UV-I 0 W/m 2,6 km/h (1 Bft)
29.04.2013 02:44 7,2 C 6,2 C 86 % 1014,5 hPa 0,0 l/m 0 min 0 min 0,0 UV-I 0 W/m 10,3 km/h (2 Bft)
29.04.2013 02:46 7,2 C 6,2 C 86 % 1014,5 hPa 0,0 l/m 0 min 0 min 0,0 UV-I 0 W/m 0,0 km/h (0 Bft)
29.04.2013 02:48 7,2 C 6,2 C 86 % 1014,4 hPa 0,0 l/m 0 min 0 min 0,0 UV-I 0 W/m 2,6 km/h (1 Bft)
29.04.2013 02:50 7,2 C 6,2 C 86 % 1014,4 hPa 0,0 l/m 0 min 0 min 0,0 UV-I 0 W/m 10,3 km/h (2 Bft)
29.04.2013 02:52 7,2 C 6,2 C 86 % 1014,5 hPa 0,0 l/m 0 min 0 min 0,0 UV-I 0 W/m 5,1 km/h (1 Bft)
29.04.2013 02:54 7,2 C 6,2 C 86 % 1014,4 hPa 0,0 l/m 0 min 0 min 0,0 UV-I 0 W/m 12,9 km/h (3 Bft)
29.04.2013 02:56 7,2 C 6,2 C 86 % 1014,5 hPa 0,0 l/m 0 min 0 min 0,0 UV-I 0 W/m 5,1 km/h (1 Bft)
29.04.2013 02:58 7,2 C 6,2 C 86 % 1014,5 hPa 0,0 l/m 0 min 0 min 0,0 UV-I 0 W/m 0,0 km/h (0 Bft)
29.04.2013 03:00 7,2 C 6,2 C 86 % 1014,5 hPa 0,0 l/m 0 min 0 min 0,0 UV-I 0 W/m 5,1 km/h (1 Bft)
29.04.2013 03:02 7,2 C 6,2 C 86 % 1014,4 hPa 0,0 l/m 0 min 0 min 0,0 UV-I 0 W/m 7,7 km/h (2 Bft)
29.04.2013 03:04 7,2 C 6,2 C 86 % 1014,4 hPa 0,0 l/m 0 min 0 min 0,0 UV-I 0 W/m 5,1 km/h (1 Bft)
29.04.2013 03:06 7,3 C 6,2 C 86 % 1014,4 hPa 0,0 l/m 0 min 0 min 0,0 UV-I 0 W/m 5,1 km/h (1 Bft)
29.04.2013 03:08 7,3 C 6,2 C 86 % 1014,4 hPa 0,0 l/m 0 min 0 min 0,0 UV-I 0 W/m 7,7 km/h (2 Bft)
29.04.2013 03:10 7,3 C 6,2 C 86 % 1014,3 hPa 0,0 l/m 0 min 0 min 0,0 UV-I 0 W/m 2,6 km/h (1 Bft)
29.04.2013 03:12 7,3 C 6,2 C 86 % 1014,4 hPa 0,0 l/m 0 min 0 min 0,0 UV-I 0 W/m 10,3 km/h (2 Bft)
29.04.2013 03:14 7,3 C 6,2 C 86 % 1014,4 hPa 0,0 l/m 0 min 0 min 0,0 UV-I 0 W/m 2,6 km/h (1 Bft)
29.04.2013 03:16 7,3 C 6,2 C 86 % 1014,4 hPa 0,0 l/m 0 min 0 min 0,0 UV-I 0 W/m 2,6 km/h (1 Bft)
29.04.2013 03:18 7,3 C 6,2 C 86 % 1014,3 hPa 0,0 l/m 0 min 0 min 0,0 UV-I 0 W/m 12,9 km/h (3 Bft)
29.04.2013 03:20 7,3 C 6,2 C 86 % 1014,3 hPa 0,0 l/m 0 min 0 min 0,0 UV-I 0 W/m 5,1 km/h (1 Bft)
29.04.2013 03:22 7,3 C 6,2 C 86 % 1014,4 hPa 0,0 l/m 0 min 0 min 0,0 UV-I 0 W/m 12,9 km/h (3 Bft)
29.04.2013 03:24 7,4 C 6,2 C 86 % 1014,3 hPa 0,0 l/m 0 min 0 min 0,0 UV-I 0 W/m 5,1 km/h (1 Bft)
29.04.2013 03:26 7,4 C 6,2 C 86 % 1014,3 hPa 0,0 l/m 0 min 0 min 0,0 UV-I 0 W/m 2,6 km/h (1 Bft)
29.04.2013 03:28 7,4 C 6,2 C 86 % 1014,3 hPa 0,0 l/m 0 min 0 min 0,0 UV-I 0 W/m 2,6 km/h (1 Bft)
29.04.2013 03:30 7,4 C 6,2 C 86 % 1014,3 hPa 0,0 l/m 0 min 0 min 0,0 UV-I 0 W/m 0,0 km/h (0 Bft)
29.04.2013 03:32 7,4 C 6,2 C 86 % 1014,3 hPa 0,0 l/m 0 min 0 min 0,0 UV-I 0 W/m 2,6 km/h (1 Bft)
29.04.2013 03:34 7,4 C 6,2 C 86 % 1014,2 hPa 0,0 l/m 0 min 0 min 0,0 UV-I 0 W/m 2,6 km/h (1 Bft)
29.04.2013 03:36 7,4 C 6,2 C 86 % 1014,3 hPa 0,0 l/m 0 min 0 min 0,0 UV-I 0 W/m 7,7 km/h (2 Bft)
29.04.2013 03:38 7,4 C 6,2 C 86 % 1014,3 hPa 0,0 l/m 0 min 0 min 0,0 UV-I 0 W/m 10,3 km/h (2 Bft)
29.04.2013 03:40 7,4 C 6,2 C 86 % 1014,3 hPa 0,0 l/m 0 min 0 min 0,0 UV-I 0 W/m 7,7 km/h (2 Bft)
29.04.2013 03:42 7,3 C 6,2 C 86 % 1014,2 hPa 0,0 l/m 0 min 0 min 0,0 UV-I 0 W/m 10,3 km/h (2 Bft)
29.04.2013 03:44 7,3 C 5,7 C 86 % 1014,2 hPa 0,0 l/m 0 min 0 min 0,0 UV-I 0 W/m 0,0 km/h (0 Bft)
29.04.2013 03:46 7,3 C 5,7 C 86 % 1014,2 hPa 0,0 l/m 0 min 0 min 0,0 UV-I 0 W/m 7,7 km/h (2 Bft)
29.04.2013 03:48 7,3 C 5,7 C 86 % 1014,2 hPa 0,0 l/m 0 min 0 min 0,0 UV-I 0 W/m 10,3 km/h (2 Bft)
29.04.2013 03:50 7,3 C 5,7 C 86 % 1014,2 hPa 0,0 l/m 0 min 0 min 0,0 UV-I 0 W/m 7,7 km/h (2 Bft)
29.04.2013 03:52 7,3 C 5,7 C 86 % 1014,3 hPa 0,0 l/m 0 min 0 min 0,0 UV-I 0 W/m 5,1 km/h (1 Bft)
29.04.2013 03:54 7,3 C 5,7 C 86 % 1014,3 hPa 0,0 l/m 0 min 0 min 0,0 UV-I 0 W/m 5,1 km/h (1 Bft)
29.04.2013 03:56 7,2 C 5,7 C 86 % 1014,3 hPa 0,0 l/m 0 min 0 min 0,0 UV-I 0 W/m 2,6 km/h (1 Bft)
29.04.2013 03:58 7,2 C 5,7 C 86 % 1014,2 hPa 0,0 l/m 0 min 0 min 0,0 UV-I 0 W/m 2,6 km/h (1 Bft)
29.04.2013 04:00 7,2 C 5,7 C 86 % 1014,1 hPa 0,0 l/m 0 min 0 min 0,0 UV-I 0 W/m 7,7 km/h (2 Bft)
29.04.2013 04:02 7,2 C 5,7 C 86 % 1014,2 hPa 0,0 l/m 0 min 0 min 0,0 UV-I 0 W/m 2,6 km/h (1 Bft)
29.04.2013 04:04 7,2 C 5,7 C 86 % 1014,2 hPa 0,0 l/m 0 min 0 min 0,0 UV-I 0 W/m 7,7 km/h (2 Bft)
29.04.2013 04:06 7,2 C 5,7 C 86 % 1014,2 hPa 0,0 l/m 0 min 0 min 0,0 UV-I 0 W/m 2,6 km/h (1 Bft)
29.04.2013 04:08 7,2 C 5,7 C 86 % 1014,2 hPa 0,0 l/m 0 min 0 min 0,0 UV-I 0 W/m 2,6 km/h (1 Bft)
29.04.2013 04:10 7,1 C 5,7 C 86 % 1014,1 hPa 0,0 l/m 0 min 0 min 0,0 UV-I 0 W/m 7,7 km/h (2 Bft)
29.04.2013 04:12 7,1 C 5,7 C 86 % 1014,1 hPa 0,0 l/m 0 min 0 min 0,0 UV-I 0 W/m 10,3 km/h (2 Bft)
29.04.2013 04:14 7,1 C 5,7 C 86 % 1014,1 hPa 0,0 l/m 0 min 0 min 0,0 UV-I 0 W/m 2,6 km/h (1 Bft)
29.04.2013 04:16 7,1 C 5,7 C 86 % 1014,0 hPa 0,0 l/m 0 min 0 min 0,0 UV-I 0 W/m 7,7 km/h (2 Bft)
29.04.2013 04:18 7,1 C 5,7 C 87 % 1014,1 hPa 0,0 l/m 0 min 0 min 0,0 UV-I 0 W/m 5,1 km/h (1 Bft)
29.04.2013 04:20 7,0 C 5,7 C 87 % 1014,1 hPa 0,0 l/m 0 min 0 min 0,0 UV-I 0 W/m 5,1 km/h (1 Bft)
29.04.2013 04:22 7,0 C 5,7 C 87 % 1014,1 hPa 0,0 l/m 0 min 0 min 0,0 UV-I 0 W/m 5,1 km/h (1 Bft)
29.04.2013 04:24 7,0 C 5,7 C 87 % 1014,1 hPa 0,0 l/m 0 min 0 min 0,0 UV-I 0 W/m 15,4 km/h (3 Bft)
29.04.2013 04:26 7,0 C 5,7 C 87 % 1014,0 hPa 0,0 l/m 0 min 0 min 0,0 UV-I 0 W/m 7,7 km/h (2 Bft)
29.04.2013 04:28 6,9 C 5,7 C 87 % 1014,0 hPa 0,0 l/m 0 min 0 min 0,0 UV-I 0 W/m 2,6 km/h (1 Bft)
29.04.2013 04:30 6,9 C 5,1 C 87 % 1014,0 hPa 0,0 l/m 0 min 0 min 0,0 UV-I 0 W/m 0,0 km/h (0 Bft)
29.04.2013 04:32 6,9 C 5,1 C 87 % 1013,9 hPa 0,0 l/m 0 min 0 min 0,0 UV-I 0 W/m 2,6 km/h (1 Bft)
29.04.2013 04:34 6,9 C 5,1 C 87 % 1014,0 hPa 0,0 l/m 0 min 0 min 0,0 UV-I 0 W/m 5,1 km/h (1 Bft)
29.04.2013 04:36 6,9 C 5,1 C 87 % 1014,0 hPa 0,0 l/m 0 min 0 min 0,0 UV-I 0 W/m 7,7 km/h (2 Bft)
29.04.2013 04:38 6,9 C 5,1 C 87 % 1014,0 hPa 0,0 l/m 0 min 0 min 0,0 UV-I 0 W/m 2,6 km/h (1 Bft)
29.04.2013 04:40 6,8 C 5,1 C 87 % 1014,0 hPa 0,0 l/m 0 min 0 min 0,0 UV-I 0 W/m 7,7 km/h (2 Bft)
29.04.2013 04:42 6,8 C 5,1 C 87 % 1014,1 hPa 0,0 l/m 0 min 0 min 0,0 UV-I 0 W/m 7,7 km/h (2 Bft)
29.04.2013 04:44 6,8 C 5,1 C 87 % 1013,9 hPa 0,0 l/m 0 min 0 min 0,0 UV-I 0 W/m 0,0 km/h (0 Bft)
29.04.2013 04:46 6,8 C 5,1 C 87 % 1013,9 hPa 0,0 l/m 0 min 0 min 0,0 UV-I 0 W/m 5,1 km/h (1 Bft)
29.04.2013 04:48 6,8 C 5,1 C 87 % 1014,0 hPa 0,0 l/m 0 min 0 min 0,0 UV-I 0 W/m 10,3 km/h (2 Bft)
29.04.2013 04:50 6,8 C 5,1 C 87 % 1014,0 hPa 0,0 l/m 0 min 0 min 0,0 UV-I 0 W/m 2,6 km/h (1 Bft)
29.04.2013 04:52 6,7 C 5,1 C 87 % 1014,0 hPa 0,0 l/m 0 min 0 min 0,0 UV-I 0 W/m 0,0 km/h (0 Bft)
29.04.2013 04:54 6,7 C 5,1 C 88 % 1013,9 hPa 0,0 l/m 0 min 0 min 0,0 UV-I 0 W/m 2,6 km/h (1 Bft)
29.04.2013 04:56 6,7 C 5,1 C 87 % 1014,0 hPa 0,0 l/m 0 min 0 min 0,0 UV-I 0 W/m 5,1 km/h (1 Bft)
29.04.2013 04:58 6,7 C 5,1 C 87 % 1013,9 hPa 0,0 l/m 0 min 0 min 0,0 UV-I 0 W/m 2,6 km/h (1 Bft)
29.04.2013 05:00 6,7 C 5,1 C 88 % 1014,0 hPa 0,0 l/m 0 min 0 min 0,0 UV-I 0 W/m 0,0 km/h (0 Bft)
29.04.2013 05:02 6,7 C 5,1 C 88 % 1014,0 hPa 0,0 l/m 0 min 0 min 0,0 UV-I 0 W/m 0,0 km/h (0 Bft)
29.04.2013 05:04 6,7 C 5,1 C 88 % 1014,0 hPa 0,0 l/m 0 min 0 min 0,0 UV-I 0 W/m 0,0 km/h (0 Bft)
29.04.2013 05:06 6,7 C 5,1 C 88 % 1014,0 hPa 0,0 l/m 0 min 0 min 0,0 UV-I 0 W/m 2,6 km/h (1 Bft)
29.04.2013 05:08 6,6 C 5,1 C 88 % 1014,0 hPa 0,0 l/m 0 min 0 min 0,0 UV-I 0 W/m 7,7 km/h (2 Bft)
29.04.2013 05:10 6,6 C 5,1 C 88 % 1014,0 hPa 0,0 l/m 0 min 0 min 0,0 UV-I 0 W/m 2,6 km/h (1 Bft)
29.04.2013 05:12 6,6 C 5,1 C 88 % 1014,0 hPa 0,0 l/m 0 min 0 min 0,0 UV-I 0 W/m 0,0 km/h (0 Bft)
29.04.2013 05:14 6,6 C 5,1 C 88 % 1014,0 hPa 0,0 l/m 0 min 0 min 0,0 UV-I 0 W/m 5,1 km/h (1 Bft)
29.04.2013 05:16 6,6 C 5,1 C 88 % 1013,9 hPa 0,0 l/m 0 min 0 min 0,0 UV-I 0 W/m 5,1 km/h (1 Bft)
29.04.2013 05:18 6,5 C 5,1 C 88 % 1014,0 hPa 0,0 l/m 0 min 0 min 0,0 UV-I 0 W/m 5,1 km/h (1 Bft)
29.04.2013 05:20 6,5 C 5,1 C 88 % 1014,0 hPa 0,0 l/m 0 min 0 min 0,0 UV-I 0 W/m 7,7 km/h (2 Bft)
29.04.2013 05:22 6,4 C 5,1 C 88 % 1014,0 hPa 0,0 l/m 0 min 0 min 0,0 UV-I 0 W/m 0,0 km/h (0 Bft)
29.04.2013 05:24 6,4 C 5,1 C 88 % 1013,9 hPa 0,0 l/m 0 min 0 min 0,0 UV-I 0 W/m 0,0 km/h (0 Bft)
29.04.2013 05:26 6,4 C 5,1 C 88 % 1013,9 hPa 0,0 l/m 0 min 0 min 0,0 UV-I 0 W/m 2,6 km/h (1 Bft)
29.04.2013 05:28 6,4 C 5,1 C 88 % 1013,9 hPa 0,0 l/m 0 min 0 min 0,0 UV-I 0 W/m 7,7 km/h (2 Bft)
29.04.2013 05:30 6,4 C 4,6 C 88 % 1013,9 hPa 0,0 l/m 0 min 0 min 0,0 UV-I 0 W/m 7,7 km/h (2 Bft)
29.04.2013 05:32 6,4 C 4,6 C 88 % 1013,9 hPa 0,0 l/m 0 min 0 min 0,0 UV-I 0 W/m 2,6 km/h (1 Bft)
29.04.2013 05:34 6,3 C 4,6 C 88 % 1013,9 hPa 0,0 l/m 0 min 0 min 0,0 UV-I 0 W/m 7,7 km/h (2 Bft)
29.04.2013 05:36 6,3 C 4,6 C 88 % 1014,0 hPa 0,0 l/m 0 min 0 min 0,0 UV-I 0 W/m 5,1 km/h (1 Bft)
29.04.2013 05:38 6,3 C 4,6 C 88 % 1014,0 hPa 0,0 l/m 0 min 0 min 0,0 UV-I 0 W/m 2,6 km/h (1 Bft)
29.04.2013 05:40 6,3 C 4,6 C 88 % 1014,0 hPa 0,0 l/m 0 min 0 min 0,0 UV-I 0 W/m 0,0 km/h (0 Bft)
29.04.2013 05:42 6,3 C 4,6 C 88 % 1014,0 hPa 0,0 l/m 0 min 0 min 0,0 UV-I 0 W/m 5,1 km/h (1 Bft)
29.04.2013 05:44 6,2 C 4,6 C 89 % 1013,9 hPa 0,0 l/m 0 min 0 min 0,0 UV-I 0 W/m 5,1 km/h (1 Bft)
29.04.2013 05:46 6,2 C 4,6 C 89 % 1013,9 hPa 0,0 l/m 0 min 0 min 0,0 UV-I 0 W/m 5,1 km/h (1 Bft)
29.04.2013 05:48 6,2 C 4,6 C 89 % 1014,0 hPa 0,0 l/m 0 min 0 min 0,0 UV-I 0 W/m 2,6 km/h (1 Bft)
29.04.2013 05:50 6,2 C 4,6 C 89 % 1013,9 hPa 0,0 l/m 0 min 0 min 0,0 UV-I 0 W/m 5,1 km/h (1 Bft)
29.04.2013 05:52 6,2 C 4,6 C 89 % 1014,0 hPa 0,0 l/m 0 min 0 min 0,0 UV-I 0 W/m 2,6 km/h (1 Bft)
29.04.2013 05:54 6,2 C 4,6 C 89 % 1013,9 hPa 0,0 l/m 0 min 0 min 0,0 UV-I 0 W/m 7,7 km/h (2 Bft)
29.04.2013 05:56 6,2 C 4,6 C 89 % 1014,0 hPa 0,0 l/m 0 min 0 min 0,0 UV-I 0 W/m 0,0 km/h (0 Bft)
29.04.2013 05:58 6,1 C 4,6 C 89 % 1013,9 hPa 0,0 l/m 0 min 0 min 0,0 UV-I 0 W/m 5,1 km/h (1 Bft)
29.04.2013 06:00 6,1 C 4,6 C 89 % 1013,9 hPa 0,0 l/m 0 min 0 min 0,0 UV-I 0 W/m 7,7 km/h (2 Bft)
29.04.2013 06:02 6,1 C 4,6 C 89 % 1013,9 hPa 0,0 l/m 0 min 0 min 0,0 UV-I 0 W/m 0,0 km/h (0 Bft)
29.04.2013 06:04 6,1 C 4,6 C 89 % 1014,0 hPa 0,0 l/m 0 min 0 min 0,0 UV-I 0 W/m 12,9 km/h (3 Bft)
29.04.2013 06:06 6,1 C 4,6 C 89 % 1013,9 hPa 0,0 l/m 0 min 0 min 0,0 UV-I 0 W/m 12,9 km/h (3 Bft)
29.04.2013 06:08 6,1 C 4,6 C 89 % 1013,9 hPa 0,0 l/m 0 min 0 min 0,0 UV-I 0 W/m 7,7 km/h (2 Bft)
29.04.2013 06:10 6,1 C 4,6 C 89 % 1013,9 hPa 0,0 l/m 0 min 0 min 0,0 UV-I 0 W/m 7,7 km/h (2 Bft)
29.04.2013 06:12 6,1 C 4,6 C 89 % 1013,9 hPa 0,0 l/m 0 min 0 min 0,0 UV-I 0 W/m 7,7 km/h (2 Bft)
29.04.2013 06:14 6,0 C 4,6 C 89 % 1013,9 hPa 0,0 l/m 0 min 0 min 0,0 UV-I 0 W/m 0,0 km/h (0 Bft)
29.04.2013 06:16 6,0 C 4,6 C 89 % 1013,9 hPa 0,0 l/m 0 min 0 min 0,0 UV-I 0 W/m 7,7 km/h (2 Bft)
29.04.2013 06:18 6,0 C 4,6 C 89 % 1014,0 hPa 0,0 l/m 0 min 0 min 0,0 UV-I 5 W/m 10,3 km/h (2 Bft)
29.04.2013 06:20 6,0 C 4,6 C 89 % 1014,0 hPa 0,0 l/m 0 min 0 min 0,0 UV-I 5 W/m 10,3 km/h (2 Bft)
29.04.2013 06:22 6,0 C 4,6 C 89 % 1014,0 hPa 0,0 l/m 0 min 0 min 0,0 UV-I 5 W/m 5,1 km/h (1 Bft)
29.04.2013 06:24 6,0 C 4,6 C 89 % 1014,1 hPa 0,0 l/m 0 min 0 min 0,0 UV-I 7 W/m 0,0 km/h (0 Bft)
29.04.2013 06:26 6,0 C 4,6 C 89 % 1014,0 hPa 0,0 l/m 0 min 0 min 0,0 UV-I 7 W/m 2,6 km/h (1 Bft)
29.04.2013 06:28 6,0 C 4,6 C 89 % 1014,0 hPa 0,0 l/m 0 min 0 min 0,0 UV-I 9 W/m 0,0 km/h (0 Bft)
29.04.2013 06:30 5,9 C 4,6 C 89 % 1014,1 hPa 0,0 l/m 0 min 0 min 0,0 UV-I 9 W/m 7,7 km/h (2 Bft)
29.04.2013 06:32 5,9 C 4,6 C 89 % 1014,1 hPa 0,0 l/m 0 min 0 min 0,0 UV-I 9 W/m 0,0 km/h (0 Bft)
29.04.2013 06:34 5,9 C 4,6 C 89 % 1014,2 hPa 0,0 l/m 0 min 0 min 0,0 UV-I 11 W/m 0,0 km/h (0 Bft)
29.04.2013 06:36 5,9 C 4,6 C 89 % 1014,3 hPa 0,0 l/m 0 min 0 min 0,0 UV-I 11 W/m 5,1 km/h (1 Bft)
29.04.2013 06:38 5,9 C 4,6 C 89 % 1014,3 hPa 0,0 l/m 0 min 0 min 0,0 UV-I 12 W/m 0,0 km/h (0 Bft)
29.04.2013 06:40 5,9 C 4,6 C 89 % 1014,3 hPa 0,0 l/m 0 min 0 min 0,0 UV-I 12 W/m 7,7 km/h (2 Bft)
29.04.2013 06:42 5,9 C 4,6 C 89 % 1014,3 hPa 0,0 l/m 0 min 0 min 0,0 UV-I 12 W/m 5,1 km/h (1 Bft)
29.04.2013 06:44 5,9 C 4,6 C 89 % 1014,4 hPa 0,0 l/m 0 min 0 min 0,0 UV-I 14 W/m 2,6 km/h (1 Bft)
29.04.2013 06:46 5,8 C 4,6 C 89 % 1014,4 hPa 0,0 l/m 0 min 0 min 0,0 UV-I 14 W/m 7,7 km/h (2 Bft)
29.04.2013 06:48 5,8 C 4,6 C 89 % 1014,5 hPa 0,0 l/m 0 min 0 min 0,0 UV-I 16 W/m 0,0 km/h (0 Bft)
29.04.2013 06:50 5,8 C 4,6 C 89 % 1014,5 hPa 0,0 l/m 0 min 0 min 0,0 UV-I 16 W/m 0,0 km/h (0 Bft)
29.04.2013 06:52 5,8 C 4,6 C 90 % 1014,5 hPa 0,0 l/m 0 min 0 min 0,0 UV-I 16 W/m 0,0 km/h (0 Bft)
29.04.2013 06:54 5,8 C 4,6 C 90 % 1014,5 hPa 0,0 l/m 0 min 0 min 0,0 UV-I 18 W/m 0,0 km/h (0 Bft)
29.04.2013 06:56 5,8 C 4,6 C 90 % 1014,5 hPa 0,0 l/m 0 min 0 min 0,0 UV-I 19 W/m 2,6 km/h (1 Bft)
29.04.2013 06:58 5,8 C 4,6 C 90 % 1014,5 hPa 0,0 l/m 0 min 0 min 0,0 UV-I 19 W/m 12,9 km/h (3 Bft)
29.04.2013 07:00 5,8 C 4,6 C 90 % 1014,5 hPa 0,0 l/m 0 min 0 min 0,0 UV-I 19 W/m 5,1 km/h (1 Bft)
29.04.2013 07:02 5,8 C 4,6 C 90 % 1014,5 hPa 0,0 l/m 0 min 0 min 0,0 UV-I 21 W/m 0,0 km/h (0 Bft)
29.04.2013 07:04 5,8 C 4,6 C 90 % 1014,5 hPa 0,0 l/m 0 min 0 min 0,0 UV-I 21 W/m 0,0 km/h (0 Bft)
29.04.2013 07:06 5,8 C 4,6 C 90 % 1014,5 hPa 0,0 l/m 0 min 0 min 0,0 UV-I 21 W/m 5,1 km/h (1 Bft)
29.04.2013 07:08 5,7 C 4,6 C 90 % 1014,5 hPa 0,0 l/m 0 min 0 min 0,0 UV-I 21 W/m 0,0 km/h (0 Bft)
29.04.2013 07:10 5,7 C 4,6 C 90 % 1014,5 hPa 0,0 l/m 0 min 0 min 0,0 UV-I 23 W/m 0,0 km/h (0 Bft)
29.04.2013 07:12 5,7 C 4,6 C 90 % 1014,5 hPa 0,0 l/m 0 min 0 min 0,0 UV-I 23 W/m 2,6 km/h (1 Bft)
29.04.2013 07:14 5,7 C 4,6 C 90 % 1014,5 hPa 0,0 l/m 0 min 0 min 0,0 UV-I 25 W/m 0,0 km/h (0 Bft)
29.04.2013 07:16 5,7 C 4,6 C 89 % 1014,5 hPa 0,0 l/m 0 min 0 min 0,0 UV-I 25 W/m 0,0 km/h (0 Bft)
29.04.2013 07:18 5,7 C 4,6 C 89 % 1014,5 hPa 0,0 l/m 0 min 0 min 0,0 UV-I 25 W/m 0,0 km/h (0 Bft)
29.04.2013 07:20 5,7 C 4,6 C 89 % 1014,4 hPa 0,0 l/m 0 min 0 min 0,0 UV-I 25 W/m 7,7 km/h (2 Bft)
29.04.2013 07:22 5,7 C 4,6 C 89 % 1014,5 hPa 0,0 l/m 0 min 0 min 0,0 UV-I 26 W/m 0,0 km/h (0 Bft)
29.04.2013 07:24 5,7 C 4,6 C 89 % 1014,4 hPa 0,0 l/m 0 min 0 min 0,0 UV-I 26 W/m 10,3 km/h (2 Bft)
29.04.2013 07:26 5,7 C 4,6 C 89 % 1014,5 hPa 0,0 l/m 0 min 0 min 0,0 UV-I 26 W/m 7,7 km/h (2 Bft)
29.04.2013 07:28 5,7 C 4,6 C 89 % 1014,5 hPa 0,0 l/m 0 min 0 min 0,0 UV-I 28 W/m 7,7 km/h (2 Bft)
29.04.2013 07:30 5,7 C 4,6 C 89 % 1014,4 hPa 0,0 l/m 0 min 0 min 0,0 UV-I 28 W/m 5,1 km/h (1 Bft)
29.04.2013 07:32 5,7 C 4,6 C 88 % 1014,4 hPa 0,0 l/m 0 min 0 min 0,0 UV-I 28 W/m 7,7 km/h (2 Bft)
29.04.2013 07:34 5,7 C 4,6 C 88 % 1014,3 hPa 0,0 l/m 0 min 0 min 0,0 UV-I 28 W/m 5,1 km/h (1 Bft)
29.04.2013 07:36 5,7 C 4,6 C 88 % 1014,4 hPa 0,0 l/m 0 min 0 min 0,0 UV-I 30 W/m 0,0 km/h (0 Bft)
29.04.2013 07:38 5,7 C 4,6 C 88 % 1014,3 hPa 0,0 l/m 0 min 0 min 0,0 UV-I 30 W/m 7,7 km/h (2 Bft)
29.04.2013 07:40 5,7 C 4,6 C 88 % 1014,3 hPa 0,0 l/m 0 min 0 min 0,0 UV-I 30 W/m 2,6 km/h (1 Bft)
29.04.2013 07:42 5,7 C 5,1 C 88 % 1014,3 hPa 0,0 l/m 0 min 0 min 0,0 UV-I 30 W/m 10,3 km/h (2 Bft)
29.04.2013 07:44 5,8 C 5,1 C 87 % 1014,4 hPa 0,0 l/m 0 min 0 min 0,0 UV-I 30 W/m 5,1 km/h (1 Bft)
29.04.2013 07:46 5,8 C 5,1 C 87 % 1014,4 hPa 0,0 l/m 0 min 0 min 0,0 UV-I 32 W/m 7,7 km/h (2 Bft)
29.04.2013 07:48 5,8 C 5,1 C 87 % 1014,4 hPa 0,0 l/m 0 min 0 min 0,0 UV-I 32 W/m 2,6 km/h (1 Bft)
29.04.2013 07:50 5,8 C 5,1 C 86 % 1014,4 hPa 0,0 l/m 0 min 0 min 0,0 UV-I 32 W/m 0,0 km/h (0 Bft)
29.04.2013 07:52 5,8 C 5,1 C 86 % 1014,6 hPa 0,0 l/m 0 min 0 min 0,0 UV-I 32 W/m 7,7 km/h (2 Bft)
29.04.2013 07:54 5,9 C 5,1 C 85 % 1014,4 hPa 0,0 l/m 0 min 0 min 0,0 UV-I 32 W/m 2,6 km/h (1 Bft)
29.04.2013 07:56 5,9 C 5,1 C 84 % 1014,5 hPa 0,0 l/m 0 min 0 min 0,0 UV-I 33 W/m 0,0 km/h (0 Bft)
29.04.2013 07:58 5,9 C 5,1 C 84 % 1014,5 hPa 0,0 l/m 0 min 0 min 0,0 UV-I 33 W/m 0,0 km/h (0 Bft)
29.04.2013 08:00 5,9 C 5,1 C 84 % 1014,4 hPa 0,0 l/m 0 min 0 min 0,0 UV-I 33 W/m 2,6 km/h (1 Bft)
29.04.2013 08:02 5,9 C 5,1 C 83 % 1014,4 hPa 0,0 l/m 0 min 0 min 0,0 UV-I 33 W/m 12,9 km/h (3 Bft)
29.04.2013 08:04 6,0 C 5,7 C 82 % 1014,3 hPa 0,0 l/m 0 min 0 min 0,0 UV-I 33 W/m 7,7 km/h (2 Bft)
29.04.2013 08:06 6,1 C 5,7 C 81 % 1014,4 hPa 0,0 l/m 0 min 0 min 0,0 UV-I 33 W/m 0,0 km/h (0 Bft)
29.04.2013 08:08 6,1 C 5,7 C 79 % 1014,4 hPa 0,0 l/m 0 min 0 min 0,0 UV-I 33 W/m 12,9 km/h (3 Bft)
29.04.2013 08:10 6,2 C 5,7 C 78 % 1014,4 hPa 0,0 l/m 0 min 0 min 0,0 UV-I 35 W/m 5,1 km/h (1 Bft)
29.04.2013 08:12 6,3 C 5,7 C 77 % 1014,3 hPa 0,0 l/m 0 min 0 min 0,0 UV-I 35 W/m 0,0 km/h (0 Bft)
29.04.2013 08:14 6,3 C 5,7 C 77 % 1014,4 hPa 0,0 l/m 0 min 0 min 0,0 UV-I 35 W/m 0,0 km/h (0 Bft)
29.04.2013 08:16 6,4 C 5,7 C 76 % 1014,4 hPa 0,0 l/m 0 min 0 min 0,0 UV-I 35 W/m 10,3 km/h (2 Bft)
29.04.2013 08:18 6,4 C 5,7 C 75 % 1014,4 hPa 0,0 l/m 0 min 0 min 0,0 UV-I 35 W/m 0,0 km/h (0 Bft)
29.04.2013 08:20 6,5 C 5,7 C 74 % 1014,5 hPa 0,0 l/m 0 min 0 min 0,0 UV-I 37 W/m 7,7 km/h (2 Bft)
29.04.2013 08:22 6,6 C 5,7 C 74 % 1014,4 hPa 0,0 l/m 0 min 0 min 0,0 UV-I 37 W/m 7,7 km/h (2 Bft)
29.04.2013 08:24 6,7 C 5,7 C 74 % 1014,5 hPa 0,0 l/m 0 min 0 min 0,0 UV-I 37 W/m 10,3 km/h (2 Bft)
29.04.2013 08:26 6,7 C 6,2 C 73 % 1014,5 hPa 0,0 l/m 0 min 0 min 0,0 UV-I 37 W/m 5,1 km/h (1 Bft)
29.04.2013 08:28 6,8 C 6,2 C 73 % 1014,5 hPa 0,0 l/m 0 min 0 min 0,0 UV-I 37 W/m 10,3 km/h (2 Bft)
29.04.2013 08:30 6,9 C 6,2 C 72 % 1014,4 hPa 0,0 l/m 0 min 0 min 0,0 UV-I 37 W/m 12,9 km/h (3 Bft)
29.04.2013 08:32 7,0 C 6,2 C 72 % 1014,5 hPa 0,0 l/m 0 min 0 min 0,0 UV-I 37 W/m 5,1 km/h (1 Bft)
29.04.2013 08:34 7,1 C 6,2 C 71 % 1014,5 hPa 0,0 l/m 0 min 0 min 0,0 UV-I 39 W/m 7,7 km/h (2 Bft)
29.04.2013 08:36 7,2 C 6,2 C 71 % 1014,6 hPa 0,0 l/m 0 min 0 min 0,0 UV-I 39 W/m 12,9 km/h (3 Bft)
29.04.2013 08:38 7,2 C 6,2 C 71 % 1014,7 hPa 0,0 l/m 0 min 0 min 0,0 UV-I 39 W/m 12,9 km/h (3 Bft)
29.04.2013 08:40 7,3 C 6,2 C 71 % 1014,7 hPa 0,0 l/m 0 min 0 min 0,0 UV-I 40 W/m 2,6 km/h (1 Bft)
29.04.2013 08:42 7,4 C 6,8 C 70 % 1014,8 hPa 0,0 l/m 0 min 0 min 0,0 UV-I 40 W/m 10,3 km/h (2 Bft)
29.04.2013 08:44 7,6 C 6,8 C 70 % 1014,7 hPa 0,0 l/m 0 min 0 min 0,0 UV-I 40 W/m 2,6 km/h (1 Bft)
29.04.2013 08:46 7,6 C 6,8 C 70 % 1014,7 hPa 0,0 l/m 0 min 0 min 0,0 UV-I 42 W/m 12,9 km/h (3 Bft)
29.04.2013 08:48 7,8 C 6,8 C 69 % 1014,8 hPa 0,0 l/m 0 min 0 min 0,0 UV-I 42 W/m 15,4 km/h (3 Bft)
29.04.2013 08:50 7,8 C 6,8 C 69 % 1014,7 hPa 0,0 l/m 0 min 0 min 0,0 UV-I 42 W/m 5,1 km/h (1 Bft)
29.04.2013 08:52 7,9 C 6,8 C 69 % 1014,7 hPa 0,0 l/m 0 min 0 min 0,0 UV-I 42 W/m 7,7 km/h (2 Bft)
29.04.2013 08:54 8,1 C 6,8 C 68 % 1014,7 hPa 0,0 l/m 0 min 0 min 0,0 UV-I 44 W/m 18,0 km/h (3 Bft)
29.04.2013 08:56 8,2 C 6,8 C 67 % 1014,8 hPa 0,0 l/m 0 min 0 min 0,0 UV-I 44 W/m 18,0 km/h (3 Bft)
29.04.2013 08:58 8,3 C 6,8 C 67 % 1014,8 hPa 0,0 l/m 0 min 0 min 0,0 UV-I 46 W/m 10,3 km/h (2 Bft)
29.04.2013 09:00 8,4 C 7,3 C 67 % 1014,9 hPa 0,0 l/m 0 min 0 min 0,0 UV-I 46 W/m 15,4 km/h (3 Bft)
29.04.2013 09:02 8,5 C 7,3 C 67 % 1014,9 hPa 0,0 l/m 0 min 0 min 0,0 UV-I 47 W/m 12,9 km/h (3 Bft)
29.04.2013 09:04 8,6 C 7,3 C 66 % 1014,8 hPa 0,0 l/m 0 min 0 min 0,0 UV-I 47 W/m 18,0 km/h (3 Bft)
29.04.2013 09:06 8,8 C 7,3 C 64 % 1014,8 hPa 0,0 l/m 0 min 0 min 0,0 UV-I 47 W/m 18,0 km/h (3 Bft)
29.04.2013 09:08 8,9 C 7,3 C 64 % 1014,8 hPa 0,0 l/m 0 min 0 min 0,0 UV-I 49 W/m 12,9 km/h (3 Bft)
29.04.2013 09:10 8,9 C 7,3 C 64 % 1014,9 hPa 0,0 l/m 0 min 0 min 0,0 UV-I 54 W/m 10,3 km/h (2 Bft)
29.04.2013 09:12 9,1 C 7,9 C 65 % 1014,9 hPa 0,0 l/m 0 min 0 min 0,0 UV-I 56 W/m 12,9 km/h (3 Bft)
29.04.2013 09:14 9,2 C 7,9 C 63 % 1015,0 hPa 0,0 l/m 0 min 0 min 0,0 UV-I 54 W/m 15,4 km/h (3 Bft)
29.04.2013 09:16 9,2 C 7,9 C 63 % 1014,9 hPa 0,0 l/m 0 min 0 min 0,0 UV-I 60 W/m 7,7 km/h (2 Bft)
29.04.2013 09:18 9,3 C 7,9 C 63 % 1014,9 hPa 0,0 l/m 0 min 0 min 0,0 UV-I 63 W/m 15,4 km/h (3 Bft)
29.04.2013 09:20 9,4 C 8,4 C 63 % 1014,9 hPa 0,0 l/m 0 min 0 min 0,0 UV-I 63 W/m 18,0 km/h (3 Bft)
29.04.2013 09:22 9,5 C 8,4 C 63 % 1014,9 hPa 0,0 l/m 0 min 0 min 0,0 UV-I 67 W/m 7,7 km/h (2 Bft)
29.04.2013 09:24 9,6 C 8,4 C 62 % 1014,9 hPa 0,0 l/m 0 min 0 min 0,0 UV-I 77 W/m 18,0 km/h (3 Bft)
29.04.2013 09:26 9,7 C 9,0 C 61 % 1015,0 hPa 0,0 l/m 0 min 0 min 0,0 UV-I 127 W/m 23,2 km/h (4 Bft)
29.04.2013 09:28 9,8 C 9,6 C 62 % 1015,0 hPa 0,0 l/m 0 min 0 min 0,0 UV-I 174 W/m 10,3 km/h (2 Bft)
29.04.2013 09:30 9,8 C 10,7 C 61 % 1015,1 hPa 0,0 l/m 0 min 0 min 0,6 UV-I 190 W/m 18,0 km/h (3 Bft)
29.04.2013 09:32 10,0 C 11,2 C 61 % 1015,0 hPa 0,0 l/m 0 min 0 min 0,0 UV-I 148 W/m 18,0 km/h (3 Bft)
29.04.2013 09:34 10,1 C 11,8 C 60 % 1014,9 hPa 0,0 l/m 0 min 0 min 0,6 UV-I 190 W/m 15,4 km/h (3 Bft)
29.04.2013 09:36 10,2 C 13,4 C 62 % 1015,0 hPa 0,0 l/m 0 min 0 min 0,6 UV-I 255 W/m 12,9 km/h (3 Bft)
29.04.2013 09:38 10,2 C 12,9 C 60 % 1015,1 hPa 0,0 l/m 0 min 0 min 0,5 UV-I 199 W/m 18,0 km/h (3 Bft)
29.04.2013 09:40 10,3 C 14,0 C 60 % 1015,1 hPa 0,0 l/m 2 min 0 min 0,7 UV-I 436 W/m 12,9 km/h (3 Bft)
29.04.2013 09:42 10,4 C 14,6 C 60 % 1015,1 hPa 0,0 l/m 2 min 0 min 0,0 UV-I 446 W/m 12,9 km/h (3 Bft)
29.04.2013 09:44 10,5 C 12,9 C 60 % 1015,1 hPa 0,0 l/m 0 min 0 min 0,0 UV-I 169 W/m 15,4 km/h (3 Bft)
29.04.2013 09:46 10,6 C 11,8 C 60 % 1015,1 hPa 0,0 l/m 0 min 0 min 0,0 UV-I 151 W/m 5,1 km/h (1 Bft)
29.04.2013 09:48 10,6 C 11,2 C 60 % 1015,0 hPa 0,0 l/m 0 min 0 min 0,0 UV-I 139 W/m 7,7 km/h (2 Bft)
29.04.2013 09:50 10,6 C 10,7 C 59 % 1015,0 hPa 0,0 l/m 0 min 0 min 0,0 UV-I 139 W/m 20,6 km/h (4 Bft)
29.04.2013 09:52 10,5 C 9,6 C 57 % 1015,0 hPa 0,0 l/m 0 min 0 min 0,0 UV-I 139 W/m 10,3 km/h (2 Bft)
29.04.2013 09:54 10,4 C 9,6 C 58 % 1015,2 hPa 0,0 l/m 0 min 0 min 0,0 UV-I 151 W/m 5,1 km/h (1 Bft)
29.04.2013 09:56 10,3 C 9,6 C 58 % 1015,2 hPa 0,0 l/m 0 min 0 min 0,0 UV-I 153 W/m 23,2 km/h (4 Bft)
29.04.2013 09:58 10,3 C 9,6 C 57 % 1015,1 hPa 0,0 l/m 0 min 0 min 0,0 UV-I 155 W/m 25,7 km/h (4 Bft)
29.04.2013 10:00 10,3 C 9,6 C 57 % 1015,1 hPa 0,0 l/m 0 min 0 min 0,0 UV-I 199 W/m 12,9 km/h (3 Bft)
29.04.2013 10:02 10,2 C 10,1 C 58 % 1015,2 hPa 0,0 l/m 0 min 0 min 0,0 UV-I 232 W/m 20,6 km/h (4 Bft)
29.04.2013 10:04 10,2 C 10,1 C 59 % 1015,2 hPa 0,0 l/m 0 min 0 min 0,0 UV-I 220 W/m 18,0 km/h (3 Bft)
29.04.2013 10:06 10,2 C 10,1 C 58 % 1015,3 hPa 0,0 l/m 0 min 0 min 0,0 UV-I 200 W/m 18,0 km/h (3 Bft)
29.04.2013 10:08 10,2 C 10,1 C 58 % 1015,3 hPa 0,0 l/m 0 min 0 min 0,0 UV-I 193 W/m 15,4 km/h (3 Bft)
29.04.2013 10:10 10,2 C 10,1 C 57 % 1015,3 hPa 0,0 l/m 0 min 0 min 0,0 UV-I 186 W/m 23,2 km/h (4 Bft)
29.04.2013 10:12 10,2 C 10,1 C 58 % 1015,2 hPa 0,0 l/m 0 min 0 min 0,0 UV-I 204 W/m 23,2 km/h (4 Bft)
29.04.2013 10:14 10,2 C 10,1 C 58 % 1015,2 hPa 0,0 l/m 0 min 0 min 0,0 UV-I 220 W/m 15,4 km/h (3 Bft)
29.04.2013 10:16 10,2 C 10,1 C 56 % 1015,4 hPa 0,0 l/m 0 min 0 min 0,0 UV-I 204 W/m 28,3 km/h (4 Bft)
29.04.2013 10:18 10,2 C 10,1 C 57 % 1015,2 hPa 0,0 l/m 0 min 0 min 0,0 UV-I 223 W/m 12,9 km/h (3 Bft)
29.04.2013 10:20 10,2 C 10,1 C 57 % 1015,3 hPa 0,0 l/m 0 min 0 min 0,0 UV-I 220 W/m 18,0 km/h (3 Bft)
29.04.2013 10:22 10,2 C 10,1 C 57 % 1015,3 hPa 0,0 l/m 0 min 0 min 0,0 UV-I 216 W/m 12,9 km/h (3 Bft)
29.04.2013 10:24 10,2 C 10,7 C 57 % 1015,3 hPa 0,0 l/m 0 min 0 min 0,0 UV-I 243 W/m 12,9 km/h (3 Bft)
29.04.2013 10:26 10,2 C 10,7 C 55 % 1015,4 hPa 0,0 l/m 0 min 0 min 0,5 UV-I 271 W/m 18,0 km/h (3 Bft)
29.04.2013 10:28 10,3 C 10,7 C 55 % 1015,3 hPa 0,0 l/m 0 min 0 min 0,6 UV-I 269 W/m 23,2 km/h (4 Bft)
29.04.2013 10:30 10,3 C 10,7 C 55 % 1015,3 hPa 0,0 l/m 0 min 0 min 0,6 UV-I 292 W/m 23,2 km/h (4 Bft)
29.04.2013 10:32 10,3 C 10,7 C 55 % 1015,4 hPa 0,0 l/m 0 min 0 min 0,8 UV-I 334 W/m 12,9 km/h (3 Bft)
29.04.2013 10:34 10,4 C 11,2 C 56 % 1015,3 hPa 0,0 l/m 0 min 0 min 0,7 UV-I 338 W/m 20,6 km/h (4 Bft)
29.04.2013 10:36 10,5 C 11,2 C 56 % 1015,3 hPa 0,0 l/m 2 min 0 min 0,8 UV-I 355 W/m 15,4 km/h (3 Bft)
29.04.2013 10:38 10,6 C 11,8 C 55 % 1015,3 hPa 0,0 l/m 0 min 0 min 0,7 UV-I 320 W/m 25,7 km/h (4 Bft)
29.04.2013 10:40 10,7 C 11,8 C 57 % 1015,4 hPa 0,0 l/m 0 min 0 min 0,7 UV-I 309 W/m 18,0 km/h (3 Bft)
29.04.2013 10:42 10,8 C 11,8 C 55 % 1015,4 hPa 0,0 l/m 0 min 0 min 0,7 UV-I 302 W/m 15,4 km/h (3 Bft)
29.04.2013 10:44 10,9 C 11,2 C 54 % 1015,5 hPa 0,0 l/m 0 min 0 min 0,6 UV-I 294 W/m 23,2 km/h (4 Bft)
29.04.2013 10:46 10,9 C 11,2 C 54 % 1015,4 hPa 0,0 l/m 0 min 0 min 0,6 UV-I 292 W/m 28,3 km/h (4 Bft)
29.04.2013 10:48 10,9 C 11,2 C 55 % 1015,4 hPa 0,0 l/m 0 min 0 min 0,6 UV-I 287 W/m 25,7 km/h (4 Bft)
29.04.2013 10:50 10,9 C 11,2 C 53 % 1015,5 hPa 0,0 l/m 0 min 0 min 0,5 UV-I 276 W/m 23,2 km/h (4 Bft)
29.04.2013 10:52 10,9 C 11,2 C 53 % 1015,5 hPa 0,0 l/m 0 min 0 min 0,5 UV-I 248 W/m 15,4 km/h (3 Bft)
29.04.2013 10:54 10,9 C 11,2 C 55 % 1015,5 hPa 0,0 l/m 0 min 0 min 0,0 UV-I 223 W/m 12,9 km/h (3 Bft)
29.04.2013 10:56 10,9 C 11,2 C 54 % 1015,6 hPa 0,0 l/m 0 min 0 min 0,0 UV-I 232 W/m 10,3 km/h (2 Bft)
29.04.2013 10:58 10,9 C 11,2 C 55 % 1015,6 hPa 0,0 l/m 0 min 0 min 0,0 UV-I 236 W/m 12,9 km/h (3 Bft)
29.04.2013 11:00 10,9 C 11,2 C 55 % 1015,6 hPa 0,0 l/m 0 min 0 min 0,0 UV-I 243 W/m 15,4 km/h (3 Bft)
29.04.2013 11:02 11,0 C 11,2 C 55 % 1015,6 hPa 0,0 l/m 0 min 0 min 0,0 UV-I 234 W/m 10,3 km/h (2 Bft)
29.04.2013 11:04 11,0 C 11,2 C 54 % 1015,6 hPa 0,0 l/m 0 min 0 min 0,5 UV-I 241 W/m 15,4 km/h (3 Bft)
29.04.2013 11:06 11,0 C 11,2 C 54 % 1015,6 hPa 0,0 l/m 0 min 0 min 0,6 UV-I 258 W/m 23,2 km/h (4 Bft)
29.04.2013 11:08 11,0 C 11,2 C 54 % 1015,7 hPa 0,0 l/m 0 min 0 min 0,6 UV-I 260 W/m 15,4 km/h (3 Bft)
29.04.2013 11:10 11,0 C 11,2 C 55 % 1015,7 hPa 0,0 l/m 0 min 0 min 0,5 UV-I 246 W/m 15,4 km/h (3 Bft)
29.04.2013 11:12 11,1 C 11,2 C 54 % 1015,7 hPa 0,0 l/m 0 min 0 min 0,5 UV-I 248 W/m 10,3 km/h (2 Bft)
29.04.2013 11:14 11,1 C 11,2 C 54 % 1015,7 hPa 0,0 l/m 0 min 0 min 0,6 UV-I 250 W/m 18,0 km/h (3 Bft)
29.04.2013 11:16 11,1 C 11,2 C 53 % 1015,7 hPa 0,0 l/m 0 min 0 min 0,5 UV-I 237 W/m 23,2 km/h (4 Bft)
29.04.2013 11:18 11,1 C 11,2 C 53 % 1015,7 hPa 0,0 l/m 0 min 0 min 0,0 UV-I 229 W/m 18,0 km/h (3 Bft)
29.04.2013 11:20 11,1 C 11,2 C 53 % 1015,8 hPa 0,0 l/m 0 min 0 min 0,5 UV-I 241 W/m 18,0 km/h (3 Bft)
29.04.2013 11:22 11,1 C 11,2 C 53 % 1015,8 hPa 0,0 l/m 0 min 0 min 0,6 UV-I 253 W/m 18,0 km/h (3 Bft)
29.04.2013 11:24 11,1 C 11,2 C 53 % 1015,8 hPa 0,0 l/m 0 min 0 min 0,5 UV-I 236 W/m 20,6 km/h (4 Bft)
29.04.2013 11:26 11,1 C 11,2 C 53 % 1015,8 hPa 0,0 l/m 0 min 0 min 0,5 UV-I 230 W/m 18,0 km/h (3 Bft)
29.04.2013 11:28 11,1 C 11,2 C 54 % 1015,8 hPa 0,0 l/m 0 min 0 min 0,5 UV-I 241 W/m 12,9 km/h (3 Bft)
29.04.2013 11:30 11,1 C 11,2 C 53 % 1015,8 hPa 0,0 l/m 0 min 0 min 0,5 UV-I 243 W/m 18,0 km/h (3 Bft)
29.04.2013 11:32 11,1 C 11,2 C 53 % 1015,9 hPa 0,0 l/m 0 min 0 min 0,5 UV-I 241 W/m 12,9 km/h (3 Bft)
29.04.2013 11:34 11,1 C 11,2 C 53 % 1015,8 hPa 0,0 l/m 0 min 0 min 0,6 UV-I 257 W/m 20,6 km/h (4 Bft)
29.04.2013 11:36 11,1 C 11,2 C 54 % 1015,9 hPa 0,0 l/m 0 min 0 min 0,6 UV-I 265 W/m 18,0 km/h (3 Bft)
29.04.2013 11:38 11,2 C 11,2 C 53 % 1015,9 hPa 0,0 l/m 0 min 0 min 0,6 UV-I 257 W/m 20,6 km/h (4 Bft)
29.04.2013 11:40 11,2 C 11,2 C 53 % 1015,9 hPa 0,0 l/m 0 min 0 min 0,6 UV-I 251 W/m 20,6 km/h (4 Bft)
29.04.2013 11:42 11,2 C 11,2 C 53 % 1016,0 hPa 0,0 l/m 0 min 0 min 0,5 UV-I 232 W/m 36,0 km/h (5 Bft)
29.04.2013 11:44 11,2 C 11,2 C 54 % 1015,9 hPa 0,0 l/m 0 min 0 min 0,5 UV-I 225 W/m 30,9 km/h (5 Bft)
29.04.2013 11:46 11,2 C 11,2 C 55 % 1016,0 hPa 0,0 l/m 0 min 0 min 0,5 UV-I 221 W/m 5,1 km/h (1 Bft)
29.04.2013 11:48 11,2 C 11,8 C 55 % 1016,0 hPa 0,0 l/m 0 min 0 min 0,5 UV-I 230 W/m 7,7 km/h (2 Bft)
29.04.2013 11:50 11,3 C 11,2 C 55 % 1016,1 hPa 0,0 l/m 0 min 0 min 0,5 UV-I 213 W/m 20,6 km/h (4 Bft)
29.04.2013 11:52 11,3 C 11,2 C 55 % 1016,2 hPa 0,0 l/m 0 min 0 min 0,0 UV-I 213 W/m 30,9 km/h (5 Bft)
29.04.2013 11:54 11,2 C 11,2 C 55 % 1016,1 hPa 0,0 l/m 0 min 0 min 0,0 UV-I 204 W/m 23,2 km/h (4 Bft)
29.04.2013 11:56 11,2 C 11,2 C 55 % 1016,2 hPa 0,0 l/m 0 min 0 min 0,0 UV-I 199 W/m 15,4 km/h (3 Bft)
29.04.2013 11:58 11,2 C 10,7 C 55 % 1016,2 hPa 0,0 l/m 0 min 0 min 0,0 UV-I 204 W/m 18,0 km/h (3 Bft)
29.04.2013 12:00 11,2 C 11,2 C 56 % 1016,3 hPa 0,0 l/m 0 min 0 min 0,0 UV-I 197 W/m 18,0 km/h (3 Bft)
29.04.2013 12:02 11,2 C 11,2 C 56 % 1016,3 hPa 0,0 l/m 0 min 0 min 0,0 UV-I 202 W/m 18,0 km/h (3 Bft)
29.04.2013 12:04 11,2 C 11,2 C 55 % 1016,3 hPa 0,0 l/m 0 min 0 min 0,0 UV-I 199 W/m 15,4 km/h (3 Bft)
29.04.2013 12:06 11,2 C 10,7 C 55 % 1016,4 hPa 0,0 l/m 0 min 0 min 0,0 UV-I 190 W/m 30,9 km/h (5 Bft)
29.04.2013 12:08 11,2 C 10,7 C 55 % 1016,3 hPa 0,0 l/m 0 min 0 min 0,0 UV-I 197 W/m 38,6 km/h (5 Bft)
29.04.2013 12:10 11,2 C 10,7 C 55 % 1016,4 hPa 0,0 l/m 0 min 0 min 0,0 UV-I 207 W/m 10,3 km/h (2 Bft)
29.04.2013 12:12 11,1 C 11,2 C 55 % 1016,4 hPa 0,0 l/m 0 min 0 min 0,0 UV-I 218 W/m 10,3 km/h (2 Bft)
29.04.2013 12:14 11,2 C 11,2 C 56 % 1016,4 hPa 0,0 l/m 0 min 0 min 0,5 UV-I 227 W/m 15,4 km/h (3 Bft)
29.04.2013 12:16 11,2 C 11,2 C 55 % 1016,3 hPa 0,0 l/m 0 min 0 min 0,7 UV-I 255 W/m 18,0 km/h (3 Bft)
29.04.2013 12:18 11,2 C 11,2 C 55 % 1016,3 hPa 0,0 l/m 0 min 0 min 1,1 UV-I 309 W/m 15,4 km/h (3 Bft)
29.04.2013 12:20 11,3 C 11,8 C 55 % 1016,3 hPa 0,0 l/m 0 min 0 min 1,3 UV-I 362 W/m 30,9 km/h (5 Bft)
29.04.2013 12:22 11,3 C 12,3 C 55 % 1016,4 hPa 0,0 l/m 0 min 0 min 1,5 UV-I 404 W/m 23,2 km/h (4 Bft)
29.04.2013 12:24 11,4 C 12,3 C 56 % 1016,4 hPa 0,0 l/m 0 min 0 min 2,9 UV-I 404 W/m 28,3 km/h (4 Bft)
29.04.2013 12:26 11,5 C 12,9 C 57 % 1016,4 hPa 0,0 l/m 0 min 0 min 1,6 UV-I 410 W/m 30,9 km/h (5 Bft)
29.04.2013 12:28 11,6 C 12,9 C 56 % 1016,4 hPa 0,0 l/m 2 min 0 min 1,9 UV-I 462 W/m 15,4 km/h (3 Bft)
29.04.2013 12:30 11,7 C 13,4 C 57 % 1016,5 hPa 0,0 l/m 2 min 0 min 2,2 UV-I 599 W/m 25,7 km/h (4 Bft)
29.04.2013 12:32 11,8 C 14,0 C 57 % 1016,4 hPa 0,0 l/m 2 min 0 min 2,0 UV-I 501 W/m 28,3 km/h (4 Bft)
29.04.2013 12:34 11,9 C 13,4 C 56 % 1016,3 hPa 0,0 l/m 0 min 0 min 1,6 UV-I 406 W/m 15,4 km/h (3 Bft)
29.04.2013 12:36 12,0 C 14,0 C 57 % 1016,4 hPa 0,0 l/m 0 min 0 min 1,5 UV-I 366 W/m 15,4 km/h (3 Bft)
29.04.2013 12:38 12,1 C 13,4 C 56 % 1016,6 hPa 0,0 l/m 0 min 0 min 1,5 UV-I 350 W/m 23,2 km/h (4 Bft)
29.04.2013 12:40 12,2 C 13,4 C 55 % 1016,3 hPa 0,0 l/m 0 min 0 min 1,4 UV-I 341 W/m 23,2 km/h (4 Bft)
29.04.2013 12:42 12,3 C 13,4 C 56 % 1016,5 hPa 0,0 l/m 0 min 0 min 1,5 UV-I 359 W/m 15,4 km/h (3 Bft)
29.04.2013 12:44 12,3 C 13,4 C 56 % 1016,5 hPa 0,0 l/m 0 min 0 min 1,4 UV-I 380 W/m 18,0 km/h (3 Bft)
29.04.2013 12:46 12,4 C 13,4 C 55 % 1016,5 hPa 0,0 l/m 0 min 0 min 0,8 UV-I 251 W/m 18,0 km/h (3 Bft)
29.04.2013 12:48 12,4 C 12,9 C 55 % 1016,6 hPa 0,0 l/m 0 min 0 min 0,7 UV-I 234 W/m 23,2 km/h (4 Bft)
29.04.2013 12:50 12,4 C 12,3 C 55 % 1016,7 hPa 0,0 l/m 0 min 0 min 0,6 UV-I 248 W/m 20,6 km/h (4 Bft)
29.04.2013 12:52 12,3 C 12,3 C 55 % 1016,7 hPa 0,0 l/m 0 min 0 min 0,7 UV-I 258 W/m 23,2 km/h (4 Bft)
29.04.2013 12:54 12,2 C 11,8 C 55 % 1016,7 hPa 0,0 l/m 0 min 0 min 0,7 UV-I 253 W/m 23,2 km/h (4 Bft)
29.04.2013 12:56 12,2 C 12,3 C 55 % 1016,7 hPa 0,0 l/m 0 min 0 min 1,0 UV-I 292 W/m 20,6 km/h (4 Bft)
29.04.2013 12:58 12,2 C 12,3 C 55 % 1016,5 hPa 0,0 l/m 0 min 0 min 0,8 UV-I 269 W/m 12,9 km/h (3 Bft)
29.04.2013 13:00 12,2 C 12,3 C 56 % 1016,5 hPa 0,0 l/m 0 min 0 min 0,7 UV-I 258 W/m 5,1 km/h (1 Bft)
29.04.2013 13:02 12,2 C 12,3 C 56 % 1016,5 hPa 0,0 l/m 0 min 0 min 0,9 UV-I 309 W/m 18,0 km/h (3 Bft)
29.04.2013 13:04 12,2 C 12,3 C 57 % 1016,5 hPa 0,0 l/m 0 min 2 min 1,2 UV-I 336 W/m 18,0 km/h (3 Bft)
29.04.2013 13:06 12,2 C 12,9 C 58 % 1016,5 hPa 0,0 l/m 0 min 0 min 1,3 UV-I 352 W/m 23,2 km/h (4 Bft)
29.04.2013 13:08 12,2 C 13,4 C 57 % 1016,7 hPa 0,0 l/m 0 min 0 min 1,7 UV-I 427 W/m 28,3 km/h (4 Bft)
29.04.2013 13:10 12,3 C 14,0 C 57 % 1016,4 hPa 0,0 l/m 2 min 0 min 3,3 UV-I 459 W/m 10,3 km/h (2 Bft)
29.04.2013 13:12 12,4 C 14,6 C 59 % 1016,3 hPa 0,0 l/m 2 min 0 min 2,8 UV-I 633 W/m 7,7 km/h (2 Bft)
29.04.2013 13:14 12,6 C 15,1 C 59 % 1016,4 hPa 0,0 l/m 2 min 0 min 2,5 UV-I 561 W/m 15,4 km/h (3 Bft)
29.04.2013 13:16 12,7 C 15,1 C 58 % 1016,4 hPa 0,0 l/m 2 min 0 min 1,9 UV-I 561 W/m 10,3 km/h (2 Bft)
29.04.2013 13:18 12,8 C 14,6 C 57 % 1016,4 hPa 0,0 l/m 0 min 0 min 2,2 UV-I 323 W/m 25,7 km/h (4 Bft)
29.04.2013 13:20 12,9 C 15,1 C 56 % 1016,4 hPa 0,0 l/m 0 min 0 min 2,4 UV-I 401 W/m 12,9 km/h (3 Bft)
29.04.2013 13:22 13,0 C 14,0 C 56 % 1016,5 hPa 0,0 l/m 0 min 0 min 1,3 UV-I 357 W/m 12,9 km/h (3 Bft)
29.04.2013 13:24 13,0 C 13,4 C 55 % 1016,5 hPa 0,0 l/m 0 min 0 min 1,3 UV-I 315 W/m 15,4 km/h (3 Bft)
29.04.2013 13:26 12,9 C 12,9 C 55 % 1016,5 hPa 0,0 l/m 0 min 0 min 1,3 UV-I 352 W/m 15,4 km/h (3 Bft)
29.04.2013 13:28 12,9 C 13,4 C 56 % 1016,6 hPa 0,0 l/m 0 min 0 min 1,3 UV-I 330 W/m 18,0 km/h (3 Bft)
29.04.2013 13:30 12,9 C 13,4 C 55 % 1016,6 hPa 0,0 l/m 0 min 0 min 1,2 UV-I 315 W/m 10,3 km/h (2 Bft)
29.04.2013 13:32 12,9 C 13,4 C 55 % 1016,6 hPa 0,0 l/m 0 min 0 min 1,0 UV-I 306 W/m 15,4 km/h (3 Bft)
29.04.2013 13:34 12,8 C 13,4 C 55 % 1016,7 hPa 0,0 l/m 0 min 0 min 1,0 UV-I 308 W/m 30,9 km/h (5 Bft)
29.04.2013 13:36 12,8 C 13,4 C 55 % 1016,6 hPa 0,0 l/m 0 min 0 min 1,3 UV-I 367 W/m 20,6 km/h (4 Bft)
29.04.2013 13:38 12,8 C 13,4 C 57 % 1016,6 hPa 0,0 l/m 0 min 0 min 1,7 UV-I 385 W/m 12,9 km/h (3 Bft)
29.04.2013 13:40 12,8 C 13,4 C 55 % 1016,6 hPa 0,0 l/m 0 min 0 min 1,4 UV-I 353 W/m 15,4 km/h (3 Bft)
29.04.2013 13:42 12,9 C 14,0 C 56 % 1016,6 hPa 0,0 l/m 0 min 0 min 1,6 UV-I 353 W/m 20,6 km/h (4 Bft)
29.04.2013 13:44 13,0 C 14,0 C 57 % 1016,5 hPa 0,0 l/m 0 min 0 min 1,3 UV-I 281 W/m 10,3 km/h (2 Bft)
29.04.2013 13:46 13,1 C 14,0 C 57 % 1016,6 hPa 0,0 l/m 0 min 0 min 1,3 UV-I 311 W/m 15,4 km/h (3 Bft)
29.04.2013 13:48 13,1 C 14,0 C 56 % 1016,6 hPa 0,0 l/m 0 min 0 min 1,1 UV-I 281 W/m 12,9 km/h (3 Bft)
29.04.2013 13:50 13,1 C 14,0 C 56 % 1016,6 hPa 0,0 l/m 0 min 0 min 1,4 UV-I 316 W/m 10,3 km/h (2 Bft)
29.04.2013 13:52 13,1 C 14,0 C 57 % 1016,6 hPa 0,0 l/m 0 min 0 min 1,5 UV-I 348 W/m 18,0 km/h (3 Bft)
29.04.2013 13:54 13,2 C 13,4 C 56 % 1016,6 hPa 0,0 l/m 0 min 0 min 1,7 UV-I 359 W/m 30,9 km/h (5 Bft)
29.04.2013 13:56 13,2 C 14,0 C 57 % 1016,6 hPa 0,0 l/m 0 min 0 min 1,5 UV-I 352 W/m 18,0 km/h (3 Bft)
29.04.2013 13:58 13,2 C 14,0 C 56 % 1016,6 hPa 0,0 l/m 0 min 0 min 2,1 UV-I 364 W/m 25,7 km/h (4 Bft)
29.04.2013 14:00 13,3 C 14,6 C 58 % 1016,7 hPa 0,0 l/m 2 min 0 min 2,1 UV-I 538 W/m 18,0 km/h (3 Bft)
29.04.2013 14:02 13,3 C 14,6 C 57 % 1016,6 hPa 0,0 l/m 2 min 0 min 1,8 UV-I 461 W/m 18,0 km/h (3 Bft)
29.04.2013 14:04 13,4 C 14,6 C 56 % 1016,7 hPa 0,0 l/m 0 min 0 min 1,5 UV-I 406 W/m 15,4 km/h (3 Bft)
29.04.2013 14:06 13,4 C 14,6 C 56 % 1016,7 hPa 0,0 l/m 0 min 0 min 1,5 UV-I 401 W/m 18,0 km/h (3 Bft)
29.04.2013 14:08 13,5 C 14,6 C 56 % 1016,7 hPa 0,0 l/m 2 min 0 min 1,6 UV-I 461 W/m 15,4 km/h (3 Bft)
29.04.2013 14:10 13,6 C 14,6 C 59 % 1016,7 hPa 0,0 l/m 0 min 0 min 1,4 UV-I 408 W/m 2,6 km/h (1 Bft)
29.04.2013 14:12 13,6 C 14,6 C 56 % 1016,8 hPa 0,0 l/m 0 min 0 min 1,5 UV-I 385 W/m 15,4 km/h (3 Bft)
29.04.2013 14:14 13,7 C 14,6 C 57 % 1016,8 hPa 0,0 l/m 0 min 0 min 1,4 UV-I 357 W/m 15,4 km/h (3 Bft)
29.04.2013 14:16 13,7 C 14,6 C 57 % 1016,8 hPa 0,0 l/m 0 min 0 min 1,4 UV-I 378 W/m 7,7 km/h (2 Bft)
29.04.2013 14:18 13,7 C 15,1 C 56 % 1016,8 hPa 0,0 l/m 0 min 0 min 1,4 UV-I 360 W/m 10,3 km/h (2 Bft)
29.04.2013 14:20 13,8 C 14,6 C 57 % 1016,8 hPa 0,0 l/m 0 min 0 min 2,0 UV-I 381 W/m 10,3 km/h (2 Bft)
29.04.2013 14:22 13,8 C 14,6 C 56 % 1016,8 hPa 0,0 l/m 0 min 0 min 1,5 UV-I 374 W/m 23,2 km/h (4 Bft)
29.04.2013 14:24 13,8 C 15,1 C 56 % 1016,9 hPa 0,0 l/m 0 min 0 min 1,5 UV-I 364 W/m 12,9 km/h (3 Bft)
29.04.2013 14:26 13,7 C 14,6 C 55 % 1016,9 hPa 0,0 l/m 0 min 0 min 2,3 UV-I 376 W/m 20,6 km/h (4 Bft)
29.04.2013 14:28 13,7 C 15,1 C 58 % 1016,9 hPa 0,0 l/m 0 min 0 min 1,5 UV-I 394 W/m 10,3 km/h (2 Bft)
29.04.2013 14:30 13,8 C 15,1 C 58 % 1016,9 hPa 0,0 l/m 2 min 0 min 2,0 UV-I 478 W/m 12,9 km/h (3 Bft)
29.04.2013 14:32 13,8 C 15,1 C 58 % 1016,8 hPa 0,0 l/m 2 min 0 min 2,4 UV-I 478 W/m 18,0 km/h (3 Bft)
29.04.2013 14:34 13,9 C 15,1 C 58 % 1016,9 hPa 0,0 l/m 0 min 0 min 1,6 UV-I 392 W/m 25,7 km/h (4 Bft)
29.04.2013 14:36 13,9 C 15,1 C 56 % 1016,9 hPa 0,0 l/m 0 min 0 min 1,7 UV-I 392 W/m 23,2 km/h (4 Bft)
29.04.2013 14:38 14,0 C 15,1 C 58 % 1017,0 hPa 0,0 l/m 0 min 0 min 1,6 UV-I 420 W/m 12,9 km/h (3 Bft)
29.04.2013 14:40 14,1 C 15,1 C 57 % 1017,0 hPa 0,0 l/m 0 min 0 min 1,5 UV-I 338 W/m 18,0 km/h (3 Bft)
29.04.2013 14:42 14,1 C 14,6 C 57 % 1017,0 hPa 0,0 l/m 0 min 0 min 1,4 UV-I 309 W/m 18,0 km/h (3 Bft)
29.04.2013 14:44 14,0 C 14,0 C 56 % 1017,1 hPa 0,0 l/m 2 min 0 min 2,9 UV-I 466 W/m 30,9 km/h (5 Bft)
29.04.2013 14:46 14,0 C 15,1 C 59 % 1017,2 hPa 0,0 l/m 2 min 0 min 2,0 UV-I 1072 W/m 23,2 km/h (4 Bft)
29.04.2013 14:48 14,1 C 15,1 C 59 % 1017,0 hPa 0,0 l/m 0 min 0 min 1,5 UV-I 334 W/m 18,0 km/h (3 Bft)
29.04.2013 14:50 14,1 C 14,6 C 57 % 1017,2 hPa 0,0 l/m 0 min 0 min 1,7 UV-I 334 W/m 18,0 km/h (3 Bft)
29.04.2013 14:52 14,2 C 14,6 C 57 % 1017,1 hPa 0,0 l/m 0 min 0 min 3,1 UV-I 334 W/m 15,4 km/h (3 Bft)
29.04.2013 14:54 14,2 C 15,1 C 58 % 1017,1 hPa 0,0 l/m 0 min 0 min 1,7 UV-I 366 W/m 7,7 km/h (2 Bft)
29.04.2013 14:56 14,3 C 15,1 C 59 % 1017,2 hPa 0,0 l/m 0 min 0 min 1,3 UV-I 345 W/m 10,3 km/h (2 Bft)
29.04.2013 14:58 14,4 C 15,1 C 58 % 1017,2 hPa 0,0 l/m 0 min 0 min 1,4 UV-I 388 W/m 18,0 km/h (3 Bft)
29.04.2013 15:00 14,4 C 15,7 C 58 % 1017,1 hPa 0,0 l/m 2 min 0 min 1,5 UV-I 418 W/m 12,9 km/h (3 Bft)
29.04.2013 15:02 14,4 C 15,7 C 58 % 1017,2 hPa 0,0 l/m 2 min 0 min 1,6 UV-I 439 W/m 18,0 km/h (3 Bft)
29.04.2013 15:04 14,5 C 15,7 C 58 % 1017,2 hPa 0,0 l/m 2 min 0 min 1,6 UV-I 438 W/m 7,7 km/h (2 Bft)
29.04.2013 15:06 14,5 C 16,2 C 58 % 1017,2 hPa 0,0 l/m 2 min 0 min 1,7 UV-I 441 W/m 10,3 km/h (2 Bft)
29.04.2013 15:08 14,6 C 15,7 C 58 % 1017,2 hPa 0,0 l/m 2 min 0 min 1,7 UV-I 446 W/m 15,4 km/h (3 Bft)
29.04.2013 15:10 14,6 C 15,7 C 59 % 1017,2 hPa 0,0 l/m 0 min 0 min 1,5 UV-I 401 W/m 10,3 km/h (2 Bft)
29.04.2013 15:12 14,6 C 15,7 C 57 % 1017,4 hPa 0,0 l/m 2 min 0 min 1,6 UV-I 436 W/m 30,9 km/h (5 Bft)
29.04.2013 15:14 14,6 C 15,7 C 58 % 1017,3 hPa 0,0 l/m 2 min 0 min 1,6 UV-I 441 W/m 20,6 km/h (4 Bft)
29.04.2013 15:16 14,6 C 15,7 C 57 % 1017,3 hPa 0,0 l/m 2 min 0 min 1,6 UV-I 443 W/m 20,6 km/h (4 Bft)
29.04.2013 15:18 14,6 C 15,7 C 58 % 1017,3 hPa 0,0 l/m 0 min 0 min 1,2 UV-I 339 W/m 10,3 km/h (2 Bft)
29.04.2013 15:20 14,6 C 15,1 C 58 % 1017,3 hPa 0,0 l/m 0 min 0 min 1,0 UV-I 276 W/m 12,9 km/h (3 Bft)
29.04.2013 15:22 14,5 C 14,6 C 58 % 1017,3 hPa 0,0 l/m 0 min 0 min 0,9 UV-I 253 W/m 18,0 km/h (3 Bft)
29.04.2013 15:24 14,4 C 14,6 C 58 % 1017,3 hPa 0,0 l/m 0 min 0 min 0,7 UV-I 229 W/m 15,4 km/h (3 Bft)
29.04.2013 15:26 14,3 C 14,6 C 58 % 1017,4 hPa 0,0 l/m 0 min 0 min 0,9 UV-I 334 W/m 15,4 km/h (3 Bft)
29.04.2013 15:28 14,3 C 14,6 C 58 % 1017,3 hPa 0,0 l/m 2 min 0 min 0,8 UV-I 415 W/m 15,4 km/h (3 Bft)
29.04.2013 15:30 14,3 C 14,6 C 58 % 1017,3 hPa 0,0 l/m 0 min 0 min 0,6 UV-I 239 W/m 2,6 km/h (1 Bft)
29.04.2013 15:32 14,3 C 14,6 C 58 % 1017,4 hPa 0,0 l/m 0 min 0 min 0,9 UV-I 320 W/m 10,3 km/h (2 Bft)
29.04.2013 15:34 14,3 C 14,6 C 58 % 1017,4 hPa 0,0 l/m 0 min 0 min 2,1 UV-I 345 W/m 18,0 km/h (3 Bft)
29.04.2013 15:36 14,3 C 14,6 C 58 % 1017,5 hPa 0,0 l/m 0 min 0 min 0,5 UV-I 209 W/m 20,6 km/h (4 Bft)
29.04.2013 15:38 14,3 C 14,6 C 59 % 1017,4 hPa 0,0 l/m 0 min 0 min 0,5 UV-I 232 W/m 10,3 km/h (2 Bft)
29.04.2013 15:40 14,3 C 14,6 C 58 % 1017,4 hPa 0,0 l/m 0 min 0 min 0,8 UV-I 260 W/m 18,0 km/h (3 Bft)
29.04.2013 15:42 14,3 C 15,1 C 59 % 1017,4 hPa 0,0 l/m 0 min 0 min 1,2 UV-I 260 W/m 2,6 km/h (1 Bft)
29.04.2013 15:44 14,4 C 15,1 C 60 % 1017,3 hPa 0,0 l/m 0 min 0 min 1,0 UV-I 269 W/m 20,6 km/h (4 Bft)
29.04.2013 15:46 14,6 C 15,1 C 59 % 1017,3 hPa 0,0 l/m 0 min 0 min 1,1 UV-I 345 W/m 7,7 km/h (2 Bft)
29.04.2013 15:48 14,6 C 15,1 C 59 % 1017,4 hPa 0,0 l/m 0 min 0 min 1,1 UV-I 302 W/m 7,7 km/h (2 Bft)
29.04.2013 15:50 14,7 C 15,1 C 60 % 1017,3 hPa 0,0 l/m 0 min 0 min 2,2 UV-I 322 W/m 10,3 km/h (2 Bft)
29.04.2013 15:52 14,7 C 15,1 C 59 % 1017,2 hPa 0,0 l/m 0 min 0 min 1,1 UV-I 367 W/m 15,4 km/h (3 Bft)
29.04.2013 15:54 14,7 C 15,1 C 57 % 1017,3 hPa 0,0 l/m 2 min 0 min 1,2 UV-I 381 W/m 18,0 km/h (3 Bft)
29.04.2013 15:56 14,7 C 15,1 C 58 % 1017,3 hPa 0,0 l/m 2 min 0 min 1,4 UV-I 381 W/m 15,4 km/h (3 Bft)
29.04.2013 15:58 14,7 C 15,1 C 58 % 1017,2 hPa 0,0 l/m 2 min 0 min 1,3 UV-I 381 W/m 15,4 km/h (3 Bft)
29.04.2013 16:00 14,7 C 15,1 C 58 % 1017,3 hPa 0,0 l/m 0 min 0 min 0,8 UV-I 267 W/m 12,9 km/h (3 Bft)
29.04.2013 16:02 14,7 C 14,6 C 58 % 1017,2 hPa 0,0 l/m 0 min 0 min 0,7 UV-I 244 W/m 7,7 km/h (2 Bft)
29.04.2013 16:04 14,7 C 14,6 C 57 % 1017,3 hPa 0,0 l/m 0 min 0 min 0,7 UV-I 241 W/m 7,7 km/h (2 Bft)
29.04.2013 16:06 14,7 C 14,6 C 57 % 1017,3 hPa 0,0 l/m 0 min 0 min 0,5 UV-I 216 W/m 12,9 km/h (3 Bft)
29.04.2013 16:08 14,7 C 14,0 C 57 % 1017,4 hPa 0,0 l/m 0 min 0 min 0,5 UV-I 209 W/m 15,4 km/h (3 Bft)
29.04.2013 16:10 14,6 C 14,0 C 57 % 1017,4 hPa 0,0 l/m 0 min 0 min 0,0 UV-I 216 W/m 15,4 km/h (3 Bft)
29.04.2013 16:12 14,5 C 14,0 C 57 % 1017,3 hPa 0,0 l/m 0 min 0 min 0,6 UV-I 262 W/m 10,3 km/h (2 Bft)
29.04.2013 16:14 14,4 C 14,0 C 57 % 1017,3 hPa 0,0 l/m 0 min 0 min 0,6 UV-I 269 W/m 15,4 km/h (3 Bft)
29.04.2013 16:16 14,3 C 14,0 C 57 % 1017,3 hPa 0,0 l/m 0 min 0 min 0,6 UV-I 255 W/m 15,4 km/h (3 Bft)
29.04.2013 16:18 14,3 C 14,6 C 58 % 1017,4 hPa 0,0 l/m 0 min 0 min 0,5 UV-I 241 W/m 12,9 km/h (3 Bft)
29.04.2013 16:20 14,3 C 14,0 C 58 % 1017,5 hPa 0,0 l/m 0 min 0 min 0,0 UV-I 227 W/m 15,4 km/h (3 Bft)
29.04.2013 16:22 14,3 C 14,0 C 57 % 1017,5 hPa 0,0 l/m 0 min 0 min 0,0 UV-I 195 W/m 15,4 km/h (3 Bft)
29.04.2013 16:24 14,2 C 14,0 C 58 % 1017,6 hPa 0,0 l/m 0 min 0 min 0,0 UV-I 181 W/m 15,4 km/h (3 Bft)
29.04.2013 16:26 14,1 C 14,0 C 59 % 1017,5 hPa 0,0 l/m 0 min 0 min 0,0 UV-I 174 W/m 10,3 km/h (2 Bft)
29.04.2013 16:28 14,1 C 13,4 C 59 % 1017,6 hPa 0,0 l/m 0 min 0 min 0,0 UV-I 172 W/m 5,1 km/h (1 Bft)
29.04.2013 16:30 14,1 C 13,4 C 59 % 1017,5 hPa 0,0 l/m 0 min 0 min 0,0 UV-I 162 W/m 2,6 km/h (1 Bft)
29.04.2013 16:32 14,0 C 13,4 C 60 % 1017,6 hPa 0,0 l/m 0 min 0 min 0,0 UV-I 167 W/m 15,4 km/h (3 Bft)
29.04.2013 16:34 13,9 C 13,4 C 59 % 1017,6 hPa 0,0 l/m 0 min 0 min 0,0 UV-I 202 W/m 18,0 km/h (3 Bft)
29.04.2013 16:36 13,9 C 13,4 C 60 % 1017,6 hPa 0,0 l/m 0 min 0 min 0,0 UV-I 186 W/m 12,9 km/h (3 Bft)
29.04.2013 16:38 13,9 C 13,4 C 61 % 1017,7 hPa 0,0 l/m 0 min 0 min 0,0 UV-I 169 W/m 5,1 km/h (1 Bft)
29.04.2013 16:40 13,8 C 13,4 C 61 % 1017,7 hPa 0,0 l/m 0 min 0 min 0,0 UV-I 151 W/m 7,7 km/h (2 Bft)
29.04.2013 16:42 13,8 C 12,9 C 62 % 1017,8 hPa 0,0 l/m 0 min 0 min 0,0 UV-I 153 W/m 30,9 km/h (5 Bft)
29.04.2013 16:44 13,7 C 12,9 C 63 % 1017,9 hPa 0,0 l/m 0 min 0 min 0,0 UV-I 155 W/m 25,7 km/h (4 Bft)
29.04.2013 16:46 13,6 C 12,9 C 63 % 1017,9 hPa 0,0 l/m 0 min 0 min 0,0 UV-I 163 W/m 20,6 km/h (4 Bft)
29.04.2013 16:48 13,5 C 12,9 C 63 % 1017,9 hPa 0,0 l/m 0 min 0 min 0,0 UV-I 156 W/m 7,7 km/h (2 Bft)
29.04.2013 16:50 13,4 C 12,9 C 64 % 1017,9 hPa 0,0 l/m 0 min 0 min 0,0 UV-I 148 W/m 18,0 km/h (3 Bft)
29.04.2013 16:52 13,3 C 12,3 C 65 % 1018,0 hPa 0,0 l/m 0 min 0 min 0,0 UV-I 146 W/m 25,7 km/h (4 Bft)
29.04.2013 16:54 13,2 C 12,3 C 66 % 1018,0 hPa 0,0 l/m 0 min 0 min 0,0 UV-I 146 W/m 25,7 km/h (4 Bft)
29.04.2013 16:56 13,1 C 12,3 C 66 % 1017,9 hPa 0,0 l/m 0 min 0 min 0,0 UV-I 148 W/m 25,7 km/h (4 Bft)
29.04.2013 16:58 12,9 C 11,8 C 66 % 1017,9 hPa 0,0 l/m 0 min 0 min 0,0 UV-I 142 W/m 23,2 km/h (4 Bft)
29.04.2013 17:00 12,8 C 11,8 C 67 % 1018,0 hPa 0,0 l/m 0 min 0 min 0,0 UV-I 120 W/m 20,6 km/h (4 Bft)
29.04.2013 17:02 12,7 C 11,8 C 67 % 1018,0 hPa 0,0 l/m 0 min 0 min 0,0 UV-I 97 W/m 12,9 km/h (3 Bft)
29.04.2013 17:04 12,6 C 11,2 C 67 % 1018,1 hPa 0,0 l/m 0 min 0 min 0,0 UV-I 90 W/m 18,0 km/h (3 Bft)
29.04.2013 17:06 12,4 C 11,2 C 67 % 1018,1 hPa 0,0 l/m 0 min 0 min 0,0 UV-I 90 W/m 20,6 km/h (4 Bft)
29.04.2013 17:08 12,4 C 11,2 C 68 % 1018,1 hPa 0,0 l/m 0 min 0 min 0,0 UV-I 90 W/m 10,3 km/h (2 Bft)
29.04.2013 17:10 12,3 C 11,2 C 68 % 1018,1 hPa 0,0 l/m 0 min 0 min 0,0 UV-I 91 W/m 10,3 km/h (2 Bft)
29.04.2013 17:12 12,2 C 11,2 C 68 % 1018,2 hPa 0,0 l/m 0 min 0 min 0,0 UV-I 105 W/m 20,6 km/h (4 Bft)
29.04.2013 17:14 12,1 C 10,7 C 68 % 1018,2 hPa 0,0 l/m 0 min 0 min 0,0 UV-I 135 W/m 18,0 km/h (3 Bft)
29.04.2013 17:16 12,0 C 11,2 C 68 % 1018,2 hPa 0,0 l/m 0 min 0 min 0,0 UV-I 148 W/m 15,4 km/h (3 Bft)
29.04.2013 17:18 11,9 C 11,2 C 69 % 1018,2 hPa 0,0 l/m 0 min 0 min 0,0 UV-I 199 W/m 18,0 km/h (3 Bft)
29.04.2013 17:20 11,8 C 11,8 C 70 % 1018,2 hPa 0,0 l/m 0 min 0 min 0,0 UV-I 209 W/m 12,9 km/h (3 Bft)
29.04.2013 17:22 11,8 C 11,8 C 69 % 1018,2 hPa 0,0 l/m 0 min 0 min 0,0 UV-I 204 W/m 15,4 km/h (3 Bft)
29.04.2013 17:24 11,8 C 11,8 C 70 % 1018,1 hPa 0,0 l/m 0 min 0 min 0,0 UV-I 190 W/m 10,3 km/h (2 Bft)
29.04.2013 17:26 11,8 C 11,8 C 71 % 1018,1 hPa 0,0 l/m 0 min 0 min 0,0 UV-I 183 W/m 0,0 km/h (0 Bft)
29.04.2013 17:28 11,8 C 11,8 C 71 % 1018,2 hPa 0,0 l/m 0 min 0 min 0,0 UV-I 181 W/m 2,6 km/h (1 Bft)
29.04.2013 17:30 11,8 C 11,8 C 71 % 1018,2 hPa 0,0 l/m 0 min 0 min 0,0 UV-I 181 W/m 15,4 km/h (3 Bft)
29.04.2013 17:32 11,8 C 11,8 C 71 % 1018,2 hPa 0,0 l/m 0 min 0 min 0,0 UV-I 156 W/m 2,6 km/h (1 Bft)
29.04.2013 17:34 11,8 C 11,8 C 71 % 1018,3 hPa 0,0 l/m 0 min 0 min 0,0 UV-I 151 W/m 15,4 km/h (3 Bft)
29.04.2013 17:36 11,8 C 11,8 C 70 % 1018,2 hPa 0,0 l/m 0 min 0 min 0,0 UV-I 155 W/m 18,0 km/h (3 Bft)
29.04.2013 17:38 11,8 C 11,8 C 70 % 1018,2 hPa 0,0 l/m 0 min 0 min 0,0 UV-I 141 W/m 18,0 km/h (3 Bft)
29.04.2013 17:40 11,8 C 11,8 C 71 % 1018,2 hPa 0,0 l/m 0 min 0 min 0,0 UV-I 134 W/m 2,6 km/h (1 Bft)
29.04.2013 17:42 11,8 C 11,8 C 71 % 1018,2 hPa 0,0 l/m 0 min 0 min 0,0 UV-I 128 W/m 5,1 km/h (1 Bft)
29.04.2013 17:44 11,8 C 11,8 C 71 % 1018,2 hPa 0,0 l/m 0 min 0 min 0,0 UV-I 144 W/m 10,3 km/h (2 Bft)
29.04.2013 17:46 11,8 C 11,8 C 71 % 1018,2 hPa 0,0 l/m 0 min 0 min 0,0 UV-I 149 W/m 12,9 km/h (3 Bft)
29.04.2013 17:48 11,8 C 11,8 C 71 % 1018,3 hPa 0,0 l/m 0 min 0 min 0,0 UV-I 148 W/m 15,4 km/h (3 Bft)
29.04.2013 17:50 11,9 C 11,8 C 71 % 1018,3 hPa 0,0 l/m 0 min 0 min 0,0 UV-I 137 W/m 7,7 km/h (2 Bft)
29.04.2013 17:52 11,9 C 11,8 C 71 % 1018,2 hPa 0,0 l/m 0 min 0 min 0,0 UV-I 135 W/m 12,9 km/h (3 Bft)
29.04.2013 17:54 11,9 C 11,8 C 69 % 1018,3 hPa 0,0 l/m 0 min 0 min 0,0 UV-I 132 W/m 0,0 km/h (0 Bft)
29.04.2013 17:56 11,9 C 11,8 C 70 % 1018,3 hPa 0,0 l/m 0 min 0 min 0,0 UV-I 123 W/m 0,0 km/h (0 Bft)
29.04.2013 17:58 11,9 C 11,8 C 70 % 1018,2 hPa 0,0 l/m 0 min 0 min 0,0 UV-I 113 W/m 10,3 km/h (2 Bft)
29.04.2013 18:00 11,9 C 11,8 C 70 % 1018,2 hPa 0,0 l/m 0 min 0 min 0,0 UV-I 107 W/m 5,1 km/h (1 Bft)
29.04.2013 18:02 11,9 C 11,8 C 69 % 1018,4 hPa 0,0 l/m 0 min 0 min 0,0 UV-I 111 W/m 7,7 km/h (2 Bft)
29.04.2013 18:04 11,9 C 11,8 C 68 % 1018,4 hPa 0,0 l/m 0 min 0 min 0,0 UV-I 102 W/m 20,6 km/h (4 Bft)
29.04.2013 18:06 11,9 C 11,8 C 68 % 1018,5 hPa 0,0 l/m 0 min 0 min 0,0 UV-I 98 W/m 12,9 km/h (3 Bft)
29.04.2013 18:08 11,9 C 11,2 C 69 % 1018,4 hPa 0,0 l/m 0 min 0 min 0,0 UV-I 81 W/m 2,6 km/h (1 Bft)
29.04.2013 18:10 11,9 C 11,2 C 68 % 1018,4 hPa 0,0 l/m 0 min 0 min 0,0 UV-I 90 W/m 5,1 km/h (1 Bft)
29.04.2013 18:12 11,9 C 11,2 C 69 % 1018,4 hPa 0,0 l/m 0 min 0 min 0,0 UV-I 98 W/m 12,9 km/h (3 Bft)
29.04.2013 18:14 11,9 C 11,2 C 68 % 1018,5 hPa 0,0 l/m 0 min 0 min 0,0 UV-I 77 W/m 5,1 km/h (1 Bft)
29.04.2013 18:16 11,9 C 11,2 C 69 % 1018,4 hPa 0,0 l/m 0 min 0 min 0,0 UV-I 69 W/m 2,6 km/h (1 Bft)
29.04.2013 18:18 11,9 C 11,2 C 69 % 1018,5 hPa 0,0 l/m 0 min 0 min 0,0 UV-I 65 W/m 10,3 km/h (2 Bft)
29.04.2013 18:20 11,9 C 11,2 C 69 % 1018,5 hPa 0,0 l/m 0 min 0 min 0,0 UV-I 65 W/m 2,6 km/h (1 Bft)
29.04.2013 18:22 11,9 C 11,2 C 68 % 1018,4 hPa 0,0 l/m 0 min 0 min 0,0 UV-I 67 W/m 7,7 km/h (2 Bft)
29.04.2013 18:24 11,8 C 11,2 C 68 % 1018,4 hPa 0,0 l/m 0 min 0 min 0,0 UV-I 84 W/m 0,0 km/h (0 Bft)
29.04.2013 18:26 11,8 C 11,2 C 69 % 1018,5 hPa 0,0 l/m 0 min 0 min 0,0 UV-I 102 W/m 2,6 km/h (1 Bft)
29.04.2013 18:28 11,8 C 11,2 C 69 % 1018,5 hPa 0,0 l/m 0 min 0 min 0,0 UV-I 116 W/m 5,1 km/h (1 Bft)
29.04.2013 18:30 11,8 C 11,2 C 68 % 1018,5 hPa 0,0 l/m 0 min 0 min 0,0 UV-I 127 W/m 10,3 km/h (2 Bft)
29.04.2013 18:32 11,8 C 11,2 C 69 % 1018,6 hPa 0,0 l/m 0 min 0 min 0,0 UV-I 125 W/m 2,6 km/h (1 Bft)
29.04.2013 18:34 11,8 C 11,8 C 70 % 1018,5 hPa 0,0 l/m 0 min 0 min 0,0 UV-I 120 W/m 0,0 km/h (0 Bft)
29.04.2013 18:36 11,8 C 11,8 C 69 % 1018,5 hPa 0,0 l/m 0 min 0 min 0,0 UV-I 107 W/m 7,7 km/h (2 Bft)
29.04.2013 18:38 11,8 C 11,8 C 68 % 1018,5 hPa 0,0 l/m 0 min 0 min 0,0 UV-I 100 W/m 7,7 km/h (2 Bft)
29.04.2013 18:40 11,9 C 11,8 C 67 % 1018,5 hPa 0,0 l/m 0 min 0 min 0,0 UV-I 111 W/m 5,1 km/h (1 Bft)
29.04.2013 18:42 11,8 C 11,8 C 66 % 1018,6 hPa 0,0 l/m 0 min 0 min 0,0 UV-I 123 W/m 7,7 km/h (2 Bft)
29.04.2013 18:44 11,8 C 11,2 C 66 % 1018,6 hPa 0,0 l/m 0 min 0 min 0,0 UV-I 125 W/m 5,1 km/h (1 Bft)
29.04.2013 18:46 11,8 C 11,2 C 66 % 1018,6 hPa 0,0 l/m 0 min 0 min 0,0 UV-I 153 W/m 7,7 km/h (2 Bft)
29.04.2013 18:48 11,9 C 11,8 C 67 % 1018,7 hPa 0,0 l/m 0 min 0 min 0,0 UV-I 144 W/m 2,6 km/h (1 Bft)
29.04.2013 18:50 11,9 C 11,8 C 67 % 1018,7 hPa 0,0 l/m 0 min 0 min 0,0 UV-I 120 W/m 0,0 km/h (0 Bft)
29.04.2013 18:52 11,9 C 11,8 C 67 % 1018,7 hPa 0,0 l/m 0 min 0 min 0,0 UV-I 111 W/m 5,1 km/h (1 Bft)
29.04.2013 18:54 12,0 C 11,8 C 67 % 1018,6 hPa 0,0 l/m 0 min 0 min 0,0 UV-I 120 W/m 7,7 km/h (2 Bft)
29.04.2013 18:56 12,1 C 11,8 C 66 % 1018,6 hPa 0,0 l/m 0 min 0 min 0,0 UV-I 118 W/m 2,6 km/h (1 Bft)
29.04.2013 18:58 12,1 C 11,8 C 66 % 1018,7 hPa 0,0 l/m 0 min 0 min 0,0 UV-I 120 W/m 5,1 km/h (1 Bft)
29.04.2013 19:00 12,1 C 11,8 C 66 % 1018,7 hPa 0,0 l/m 0 min 0 min 0,0 UV-I 102 W/m 0,0 km/h (0 Bft)
29.04.2013 19:02 12,2 C 11,8 C 66 % 1018,7 hPa 0,0 l/m 0 min 0 min 0,0 UV-I 88 W/m 7,7 km/h (2 Bft)
29.04.2013 19:04 12,2 C 11,2 C 65 % 1018,7 hPa 0,0 l/m 0 min 0 min 0,0 UV-I 91 W/m 7,7 km/h (2 Bft)
29.04.2013 19:06 12,1 C 11,2 C 64 % 1018,7 hPa 0,0 l/m 0 min 0 min 0,0 UV-I 91 W/m 0,0 km/h (0 Bft)
29.04.2013 19:08 12,2 C 11,2 C 64 % 1018,7 hPa 0,0 l/m 0 min 0 min 0,0 UV-I 83 W/m 0,0 km/h (0 Bft)
29.04.2013 19:10 12,1 C 11,2 C 64 % 1018,7 hPa 0,0 l/m 0 min 0 min 0,0 UV-I 77 W/m 10,3 km/h (2 Bft)
29.04.2013 19:12 12,1 C 11,2 C 64 % 1018,6 hPa 0,0 l/m 0 min 0 min 0,0 UV-I 86 W/m 2,6 km/h (1 Bft)
29.04.2013 19:14 12,1 C 11,2 C 64 % 1018,6 hPa 0,0 l/m 0 min 0 min 0,0 UV-I 97 W/m 5,1 km/h (1 Bft)
29.04.2013 19:16 12,1 C 11,2 C 64 % 1018,7 hPa 0,0 l/m 0 min 0 min 0,0 UV-I 100 W/m 0,0 km/h (0 Bft)
29.04.2013 19:18 12,1 C 11,2 C 65 % 1018,7 hPa 0,0 l/m 0 min 0 min 0,0 UV-I 97 W/m 7,7 km/h (2 Bft)
29.04.2013 19:20 12,1 C 11,2 C 64 % 1018,7 hPa 0,0 l/m 0 min 0 min 0,0 UV-I 98 W/m 7,7 km/h (2 Bft)
29.04.2013 19:22 12,1 C 11,2 C 64 % 1018,7 hPa 0,0 l/m 0 min 0 min 0,0 UV-I 91 W/m 7,7 km/h (2 Bft)
29.04.2013 19:24 12,1 C 11,2 C 64 % 1018,7 hPa 0,0 l/m 0 min 0 min 0,0 UV-I 69 W/m 7,7 km/h (2 Bft)
29.04.2013 19:26 12,1 C 11,2 C 63 % 1018,7 hPa 0,0 l/m 0 min 0 min 0,0 UV-I 62 W/m 0,0 km/h (0 Bft)
29.04.2013 19:28 12,1 C 11,2 C 63 % 1018,6 hPa 0,0 l/m 0 min 0 min 0,0 UV-I 60 W/m 0,0 km/h (0 Bft)
29.04.2013 19:30 12,1 C 10,7 C 63 % 1018,6 hPa 0,0 l/m 0 min 0 min 0,0 UV-I 53 W/m 12,9 km/h (3 Bft)
29.04.2013 19:32 12,1 C 10,7 C 64 % 1018,5 hPa 0,0 l/m 0 min 0 min 0,0 UV-I 47 W/m 15,4 km/h (3 Bft)
29.04.2013 19:34 12,1 C 10,7 C 64 % 1018,7 hPa 0,0 l/m 0 min 0 min 0,0 UV-I 47 W/m 0,0 km/h (0 Bft)
29.04.2013 19:36 12,1 C 10,7 C 64 % 1018,6 hPa 0,0 l/m 0 min 0 min 0,0 UV-I 42 W/m 7,7 km/h (2 Bft)
29.04.2013 19:38 12,1 C 10,7 C 64 % 1018,6 hPa 0,0 l/m 0 min 0 min 0,0 UV-I 39 W/m 12,9 km/h (3 Bft)
29.04.2013 19:40 12,0 C 10,7 C 64 % 1018,6 hPa 0,0 l/m 0 min 0 min 0,0 UV-I 42 W/m 7,7 km/h (2 Bft)
29.04.2013 19:42 12,0 C 10,7 C 63 % 1018,5 hPa 0,0 l/m 0 min 0 min 0,0 UV-I 40 W/m 12,9 km/h (3 Bft)
29.04.2013 19:44 11,9 C 10,7 C 64 % 1018,5 hPa 0,0 l/m 0 min 0 min 0,0 UV-I 40 W/m 7,7 km/h (2 Bft)
29.04.2013 19:46 11,9 C 10,7 C 64 % 1018,5 hPa 0,0 l/m 0 min 0 min 0,0 UV-I 40 W/m 7,7 km/h (2 Bft)
29.04.2013 19:48 11,9 C 10,1 C 64 % 1018,5 hPa 0,0 l/m 0 min 0 min 0,0 UV-I 39 W/m 0,0 km/h (0 Bft)
29.04.2013 19:50 11,9 C 10,1 C 64 % 1018,5 hPa 0,0 l/m 0 min 0 min 0,0 UV-I 39 W/m 5,1 km/h (1 Bft)
29.04.2013 19:52 11,8 C 10,1 C 64 % 1018,5 hPa 0,0 l/m 0 min 0 min 0,0 UV-I 35 W/m 7,7 km/h (2 Bft)
29.04.2013 19:54 11,8 C 10,1 C 64 % 1018,5 hPa 0,0 l/m 0 min 0 min 0,0 UV-I 37 W/m 0,0 km/h (0 Bft)
29.04.2013 19:56 11,8 C 10,1 C 64 % 1018,6 hPa 0,0 l/m 0 min 0 min 0,0 UV-I 33 W/m 0,0 km/h (0 Bft)
29.04.2013 19:58 11,8 C 10,1 C 64 % 1018,6 hPa 0,0 l/m 0 min 0 min 0,0 UV-I 32 W/m 0,0 km/h (0 Bft)
29.04.2013 20:00 11,8 C 10,1 C 64 % 1018,6 hPa 0,0 l/m 0 min 0 min 0,0 UV-I 32 W/m 0,0 km/h (0 Bft)
29.04.2013 20:02 11,7 C 9,6 C 64 % 1018,7 hPa 0,0 l/m 0 min 0 min 0,0 UV-I 30 W/m 0,0 km/h (0 Bft)
29.04.2013 20:04 11,7 C 9,6 C 64 % 1018,7 hPa 0,0 l/m 0 min 0 min 0,0 UV-I 28 W/m 0,0 km/h (0 Bft)
29.04.2013 20:06 11,7 C 9,6 C 65 % 1018,8 hPa 0,0 l/m 0 min 0 min 0,0 UV-I 28 W/m 0,0 km/h (0 Bft)
29.04.2013 20:08 11,7 C 9,6 C 65 % 1018,8 hPa 0,0 l/m 0 min 0 min 0,0 UV-I 28 W/m 0,0 km/h (0 Bft)
29.04.2013 20:10 11,6 C 9,6 C 64 % 1018,8 hPa 0,0 l/m 0 min 0 min 0,0 UV-I 26 W/m 7,7 km/h (2 Bft)
29.04.2013 20:12 11,6 C 9,6 C 64 % 1018,9 hPa 0,0 l/m 0 min 0 min 0,0 UV-I 26 W/m 0,0 km/h (0 Bft)
29.04.2013 20:14 11,6 C 9,6 C 64 % 1018,9 hPa 0,0 l/m 0 min 0 min 0,0 UV-I 25 W/m 0,0 km/h (0 Bft)
29.04.2013 20:16 11,5 C 9,0 C 64 % 1018,9 hPa 0,0 l/m 0 min 0 min 0,0 UV-I 23 W/m 0,0 km/h (0 Bft)
29.04.2013 20:18 11,4 C 9,0 C 64 % 1018,9 hPa 0,0 l/m 0 min 0 min 0,0 UV-I 23 W/m 5,1 km/h (1 Bft)
29.04.2013 20:20 11,4 C 9,0 C 64 % 1019,0 hPa 0,0 l/m 0 min 0 min 0,0 UV-I 21 W/m 0,0 km/h (0 Bft)
29.04.2013 20:22 11,4 C 9,0 C 64 % 1019,0 hPa 0,0 l/m 0 min 0 min 0,0 UV-I 21 W/m 0,0 km/h (0 Bft)
29.04.2013 20:24 11,3 C 9,0 C 64 % 1019,0 hPa 0,0 l/m 0 min 0 min 0,0 UV-I 21 W/m 0,0 km/h (0 Bft)
29.04.2013 20:26 11,3 C 9,0 C 64 % 1019,1 hPa 0,0 l/m 0 min 0 min 0,0 UV-I 23 W/m 2,6 km/h (1 Bft)
29.04.2013 20:28 11,3 C 9,0 C 64 % 1019,1 hPa 0,0 l/m 0 min 0 min 0,0 UV-I 23 W/m 0,0 km/h (0 Bft)
29.04.2013 20:30 11,2 C 9,0 C 66 % 1019,1 hPa 0,0 l/m 0 min 0 min 0,0 UV-I 23 W/m 0,0 km/h (0 Bft)
29.04.2013 20:32 11,2 C 9,0 C 64 % 1019,1 hPa 0,0 l/m 2 min 0 min 0,0 UV-I 23 W/m 0,0 km/h (0 Bft)
29.04.2013 20:34 11,2 C 8,4 C 64 % 1019,1 hPa 0,0 l/m 2 min 0 min 0,0 UV-I 21 W/m 0,0 km/h (0 Bft)
29.04.2013 20:36 11,1 C 8,4 C 64 % 1019,1 hPa 0,0 l/m 2 min 0 min 0,0 UV-I 19 W/m 0,0 km/h (0 Bft)
29.04.2013 20:38 11,1 C 8,4 C 64 % 1019,1 hPa 0,0 l/m 0 min 0 min 0,0 UV-I 18 W/m 0,0 km/h (0 Bft)
29.04.2013 20:40 11,1 C 7,9 C 64 % 1019,1 hPa 0,0 l/m 0 min 0 min 0,0 UV-I 14 W/m 0,0 km/h (0 Bft)
29.04.2013 20:42 11,0 C 7,9 C 65 % 1019,2 hPa 0,0 l/m 0 min 0 min 0,0 UV-I 12 W/m 0,0 km/h (0 Bft)
29.04.2013 20:44 10,9 C 7,9 C 65 % 1019,2 hPa 0,0 l/m 0 min 0 min 0,0 UV-I 11 W/m 0,0 km/h (0 Bft)
29.04.2013 20:46 10,9 C 7,3 C 65 % 1019,3 hPa 0,0 l/m 0 min 0 min 0,0 UV-I 11 W/m 0,0 km/h (0 Bft)
29.04.2013 20:48 10,9 C 7,3 C 65 % 1019,3 hPa 0,0 l/m 0 min 0 min 0,0 UV-I 9 W/m 0,0 km/h (0 Bft)
29.04.2013 20:50 10,8 C 7,3 C 65 % 1019,4 hPa 0,0 l/m 0 min 0 min 0,0 UV-I 9 W/m 0,0 km/h (0 Bft)
29.04.2013 20:52 10,8 C 7,3 C 65 % 1019,5 hPa 0,0 l/m 0 min 0 min 0,0 UV-I 7 W/m 0,0 km/h (0 Bft)
29.04.2013 20:54 10,8 C 7,3 C 65 % 1019,4 hPa 0,0 l/m 0 min 0 min 0,0 UV-I 7 W/m 0,0 km/h (0 Bft)
29.04.2013 20:56 10,7 C 6,8 C 66 % 1019,5 hPa 0,0 l/m 0 min 0 min 0,0 UV-I 7 W/m 0,0 km/h (0 Bft)
29.04.2013 20:58 10,7 C 6,8 C 66 % 1019,6 hPa 0,0 l/m 0 min 0 min 0,0 UV-I 5 W/m 0,0 km/h (0 Bft)
29.04.2013 21:00 10,6 C 6,8 C 66 % 1019,6 hPa 0,0 l/m 0 min 0 min 0,0 UV-I 5 W/m 0,0 km/h (0 Bft)
29.04.2013 21:02 10,5 C 6,8 C 66 % 1019,6 hPa 0,0 l/m 0 min 0 min 0,0 UV-I 0 W/m 0,0 km/h (0 Bft)
29.04.2013 21:04 10,4 C 6,8 C 67 % 1019,6 hPa 0,0 l/m 0 min 0 min 0,0 UV-I 0 W/m 0,0 km/h (0 Bft)
29.04.2013 21:06 10,4 C 6,8 C 68 % 1019,7 hPa 0,0 l/m 0 min 0 min 0,0 UV-I 0 W/m 0,0 km/h (0 Bft)
29.04.2013 21:08 10,4 C 6,2 C 68 % 1019,7 hPa 0,0 l/m 0 min 0 min 0,0 UV-I 0 W/m 0,0 km/h (0 Bft)
29.04.2013 21:10 10,3 C 6,2 C 67 % 1019,7 hPa 0,0 l/m 0 min 0 min 0,0 UV-I 0 W/m 0,0 km/h (0 Bft)
29.04.2013 21:12 10,2 C 6,2 C 67 % 1019,7 hPa 0,0 l/m 0 min 0 min 0,0 UV-I 0 W/m 0,0 km/h (0 Bft)
29.04.2013 21:14 10,2 C 6,2 C 67 % 1019,7 hPa 0,0 l/m 0 min 0 min 0,0 UV-I 0 W/m 0,0 km/h (0 Bft)
29.04.2013 21:16 10,1 C 6,2 C 67 % 1019,8 hPa 0,0 l/m 0 min 0 min 0,0 UV-I 0 W/m 0,0 km/h (0 Bft)
29.04.2013 21:18 10,1 C 6,2 C 68 % 1019,8 hPa 0,0 l/m 0 min 0 min 0,0 UV-I 0 W/m 0,0 km/h (0 Bft)
29.04.2013 21:20 9,9 C 6,2 C 68 % 1019,8 hPa 0,0 l/m 0 min 0 min 0,0 UV-I 0 W/m 0,0 km/h (0 Bft)
29.04.2013 21:22 9,9 C 5,7 C 68 % 1019,8 hPa 0,0 l/m 0 min 0 min 0,0 UV-I 0 W/m 0,0 km/h (0 Bft)
29.04.2013 21:24 9,8 C 5,7 C 68 % 1019,9 hPa 0,0 l/m 0 min 0 min 0,0 UV-I 0 W/m 0,0 km/h (0 Bft)
29.04.2013 21:26 9,8 C 5,7 C 68 % 1019,8 hPa 0,0 l/m 0 min 0 min 0,0 UV-I 0 W/m 0,0 km/h (0 Bft)
29.04.2013 21:28 9,7 C 5,7 C 69 % 1019,9 hPa 0,0 l/m 0 min 0 min 0,0 UV-I 0 W/m 0,0 km/h (0 Bft)
29.04.2013 21:30 9,6 C 5,7 C 70 % 1019,9 hPa 0,0 l/m 0 min 0 min 0,0 UV-I 0 W/m 0,0 km/h (0 Bft)
29.04.2013 21:32 9,6 C 5,7 C 70 % 1020,0 hPa 0,0 l/m 0 min 0 min 0,0 UV-I 0 W/m 0,0 km/h (0 Bft)
29.04.2013 21:34 9,5 C 5,7 C 70 % 1020,0 hPa 0,0 l/m 0 min 0 min 0,0 UV-I 0 W/m 0,0 km/h (0 Bft)
29.04.2013 21:36 9,4 C 5,7 C 70 % 1020,0 hPa 0,0 l/m 0 min 0 min 0,0 UV-I 0 W/m 0,0 km/h (0 Bft)
29.04.2013 21:38 9,3 C 5,7 C 71 % 1020,0 hPa 0,0 l/m 0 min 0 min 0,0 UV-I 0 W/m 0,0 km/h (0 Bft)
29.04.2013 21:40 9,3 C 5,7 C 71 % 1020,0 hPa 0,0 l/m 0 min 0 min 0,0 UV-I 0 W/m 0,0 km/h (0 Bft)
29.04.2013 21:42 9,2 C 5,7 C 72 % 1020,0 hPa 0,0 l/m 0 min 0 min 0,0 UV-I 0 W/m 0,0 km/h (0 Bft)
29.04.2013 21:44 9,2 C 5,7 C 72 % 1020,0 hPa 0,0 l/m 0 min 0 min 0,0 UV-I 0 W/m 0,0 km/h (0 Bft)
29.04.2013 21:46 9,1 C 5,7 C 72 % 1020,1 hPa 0,0 l/m 0 min 0 min 0,0 UV-I 0 W/m 0,0 km/h (0 Bft)
29.04.2013 21:48 9,1 C 5,7 C 72 % 1020,1 hPa 0,0 l/m 0 min 0 min 0,0 UV-I 0 W/m 0,0 km/h (0 Bft)
29.04.2013 21:50 8,9 C 5,7 C 72 % 1020,0 hPa 0,0 l/m 0 min 0 min 0,0 UV-I 0 W/m 0,0 km/h (0 Bft)
29.04.2013 21:52 8,9 C 5,7 C 72 % 1020,1 hPa 0,0 l/m 0 min 0 min 0,0 UV-I 0 W/m 0,0 km/h (0 Bft)
29.04.2013 21:54 8,8 C 5,1 C 73 % 1020,1 hPa 0,0 l/m 0 min 0 min 0,0 UV-I 0 W/m 0,0 km/h (0 Bft)
29.04.2013 21:56 8,8 C 5,1 C 73 % 1020,1 hPa 0,0 l/m 0 min 0 min 0,0 UV-I 0 W/m 0,0 km/h (0 Bft)
29.04.2013 21:58 8,7 C 5,1 C 74 % 1020,2 hPa 0,0 l/m 0 min 0 min 0,0 UV-I 0 W/m 0,0 km/h (0 Bft)
29.04.2013 22:00 8,7 C 5,1 C 75 % 1020,3 hPa 0,0 l/m 0 min 0 min 0,0 UV-I 0 W/m 0,0 km/h (0 Bft)
29.04.2013 22:02 8,6 C 5,1 C 75 % 1020,2 hPa 0,0 l/m 0 min 0 min 0,0 UV-I 0 W/m 0,0 km/h (0 Bft)
29.04.2013 22:04 8,6 C 5,1 C 75 % 1020,1 hPa 0,0 l/m 0 min 0 min 0,0 UV-I 0 W/m 0,0 km/h (0 Bft)
29.04.2013 22:06 8,5 C 5,1 C 75 % 1020,1 hPa 0,0 l/m 0 min 0 min 0,0 UV-I 0 W/m 0,0 km/h (0 Bft)
29.04.2013 22:08 8,4 C 5,1 C 75 % 1020,1 hPa 0,0 l/m 0 min 0 min 0,0 UV-I 0 W/m 0,0 km/h (0 Bft)
29.04.2013 22:10 8,3 C 5,1 C 76 % 1020,3 hPa 0,0 l/m 0 min 0 min 0,0 UV-I 0 W/m 0,0 km/h (0 Bft)
29.04.2013 22:12 8,3 C 5,1 C 76 % 1020,3 hPa 0,0 l/m 0 min 0 min 0,0 UV-I 0 W/m 0,0 km/h (0 Bft)
29.04.2013 22:14 8,2 C 5,1 C 76 % 1020,3 hPa 0,0 l/m 0 min 0 min 0,0 UV-I 0 W/m 0,0 km/h (0 Bft)
29.04.2013 22:16 8,2 C 5,1 C 76 % 1020,3 hPa 0,0 l/m 0 min 0 min 0,0 UV-I 0 W/m 0,0 km/h (0 Bft)
29.04.2013 22:18 8,2 C 5,7 C 76 % 1020,4 hPa 0,0 l/m 0 min 0 min 0,0 UV-I 0 W/m 0,0 km/h (0 Bft)
29.04.2013 22:20 8,1 C 5,7 C 77 % 1020,5 hPa 0,0 l/m 0 min 0 min 0,0 UV-I 0 W/m 0,0 km/h (0 Bft)
29.04.2013 22:22 8,0 C 5,7 C 77 % 1020,4 hPa 0,0 l/m 0 min 0 min 0,0 UV-I 0 W/m 0,0 km/h (0 Bft)
29.04.2013 22:24 7,9 C 5,7 C 77 % 1020,4 hPa 0,0 l/m 0 min 0 min 0,0 UV-I 0 W/m 0,0 km/h (0 Bft)
29.04.2013 22:26 7,9 C 5,7 C 77 % 1020,4 hPa 0,0 l/m 0 min 0 min 0,0 UV-I 0 W/m 0,0 km/h (0 Bft)
29.04.2013 22:28 7,8 C 5,1 C 77 % 1020,4 hPa 0,0 l/m 0 min 0 min 0,0 UV-I 0 W/m 0,0 km/h (0 Bft)
29.04.2013 22:30 7,8 C 5,1 C 77 % 1020,4 hPa 0,0 l/m 0 min 0 min 0,0 UV-I 0 W/m 0,0 km/h (0 Bft)
29.04.2013 22:32 7,7 C 5,1 C 77 % 1020,5 hPa 0,0 l/m 0 min 0 min 0,0 UV-I 0 W/m 0,0 km/h (0 Bft)
29.04.2013 22:34 7,7 C 5,1 C 77 % 1020,5 hPa 0,0 l/m 0 min 0 min 0,0 UV-I 0 W/m 0,0 km/h (0 Bft)
29.04.2013 22:36 7,6 C 5,1 C 77 % 1020,5 hPa 0,0 l/m 0 min 0 min 0,0 UV-I 0 W/m 0,0 km/h (0 Bft)
29.04.2013 22:38 7,6 C 4,6 C 77 % 1020,5 hPa 0,0 l/m 0 min 0 min 0,0 UV-I 0 W/m 0,0 km/h (0 Bft)
29.04.2013 22:40 7,6 C 4,6 C 77 % 1020,4 hPa 0,0 l/m 0 min 0 min 0,0 UV-I 0 W/m 0,0 km/h (0 Bft)
29.04.2013 22:42 7,5 C 4,6 C 77 % 1020,5 hPa 0,0 l/m 0 min 0 min 0,0 UV-I 0 W/m 0,0 km/h (0 Bft)
29.04.2013 22:44 7,4 C 4,6 C 77 % 1020,5 hPa 0,0 l/m 0 min 0 min 0,0 UV-I 0 W/m 0,0 km/h (0 Bft)
29.04.2013 22:46 7,4 C 4,6 C 77 % 1020,5 hPa 0,0 l/m 0 min 0 min 0,0 UV-I 0 W/m 0,0 km/h (0 Bft)
29.04.2013 22:48 7,3 C 4,6 C 77 % 1020,6 hPa 0,0 l/m 0 min 0 min 0,0 UV-I 0 W/m 0,0 km/h (0 Bft)
29.04.2013 22:50 7,3 C 4,6 C 77 % 1020,6 hPa 0,0 l/m 0 min 0 min 0,0 UV-I 0 W/m 0,0 km/h (0 Bft)
29.04.2013 22:52 7,3 C 4,6 C 77 % 1020,5 hPa 0,0 l/m 0 min 0 min 0,0 UV-I 0 W/m 0,0 km/h (0 Bft)
29.04.2013 22:54 7,2 C 4,6 C 77 % 1020,6 hPa 0,0 l/m 0 min 0 min 0,0 UV-I 0 W/m 0,0 km/h (0 Bft)
29.04.2013 22:56 7,2 C 4,6 C 77 % 1020,6 hPa 0,0 l/m 0 min 0 min 0,0 UV-I 0 W/m 0,0 km/h (0 Bft)
29.04.2013 22:58 7,2 C 4,6 C 78 % 1020,7 hPa 0,0 l/m 0 min 0 min 0,0 UV-I 0 W/m 0,0 km/h (0 Bft)
29.04.2013 23:00 7,2 C 4,6 C 78 % 1020,6 hPa 0,0 l/m 0 min 0 min 0,0 UV-I 0 W/m 0,0 km/h (0 Bft)
29.04.2013 23:02 7,1 C 4,6 C 78 % 1020,6 hPa 0,0 l/m 0 min 0 min 0,0 UV-I 0 W/m 0,0 km/h (0 Bft)
29.04.2013 23:04 7,1 C 4,6 C 78 % 1020,6 hPa 0,0 l/m 0 min 0 min 0,0 UV-I 0 W/m 0,0 km/h (0 Bft)
29.04.2013 23:06 7,0 C 4,6 C 78 % 1020,6 hPa 0,0 l/m 0 min 0 min 0,0 UV-I 0 W/m 0,0 km/h (0 Bft)
29.04.2013 23:08 6,9 C 4,6 C 78 % 1020,7 hPa 0,0 l/m 0 min 0 min 0,0 UV-I 0 W/m 0,0 km/h (0 Bft)
29.04.2013 23:10 6,9 C 4,6 C 78 % 1020,5 hPa 0,0 l/m 0 min 0 min 0,0 UV-I 0 W/m 0,0 km/h (0 Bft)
29.04.2013 23:12 6,9 C 4,0 C 78 % 1020,5 hPa 0,0 l/m 0 min 0 min 0,0 UV-I 0 W/m 0,0 km/h (0 Bft)
29.04.2013 23:14 6,8 C 4,0 C 78 % 1020,6 hPa 0,0 l/m 0 min 0 min 0,0 UV-I 0 W/m 0,0 km/h (0 Bft)
29.04.2013 23:16 6,8 C 4,0 C 78 % 1020,6 hPa 0,0 l/m 0 min 0 min 0,0 UV-I 0 W/m 0,0 km/h (0 Bft)
29.04.2013 23:18 6,7 C 4,0 C 78 % 1020,6 hPa 0,0 l/m 0 min 0 min 0,0 UV-I 0 W/m 0,0 km/h (0 Bft)
29.04.2013 23:20 6,7 C 4,0 C 78 % 1020,7 hPa 0,0 l/m 0 min 0 min 0,0 UV-I 0 W/m 0,0 km/h (0 Bft)
29.04.2013 23:22 6,7 C 4,0 C 78 % 1020,8 hPa 0,0 l/m 0 min 0 min 0,0 UV-I 0 W/m 0,0 km/h (0 Bft)
29.04.2013 23:24 6,6 C 4,0 C 79 % 1020,8 hPa 0,0 l/m 0 min 0 min 0,0 UV-I 0 W/m 0,0 km/h (0 Bft)
29.04.2013 23:26 6,6 C 4,0 C 79 % 1020,7 hPa 0,0 l/m 0 min 0 min 0,0 UV-I 0 W/m 0,0 km/h (0 Bft)
29.04.2013 23:28 6,6 C 4,0 C 79 % 1020,7 hPa 0,0 l/m 0 min 0 min 0,0 UV-I 0 W/m 0,0 km/h (0 Bft)
29.04.2013 23:30 6,5 C 4,0 C 79 % 1020,8 hPa 0,0 l/m 0 min 0 min 0,0 UV-I 0 W/m 0,0 km/h (0 Bft)
29.04.2013 23:32 6,4 C 4,0 C 79 % 1020,8 hPa 0,0 l/m 0 min 0 min 0,0 UV-I 0 W/m 0,0 km/h (0 Bft)
29.04.2013 23:34 6,4 C 4,0 C 79 % 1020,7 hPa 0,0 l/m 0 min 0 min 0,0 UV-I 0 W/m 0,0 km/h (0 Bft)
29.04.2013 23:36 6,4 C 4,0 C 79 % 1020,8 hPa 0,0 l/m 0 min 0 min 0,0 UV-I 0 W/m 0,0 km/h (0 Bft)
29.04.2013 23:38 6,3 C 4,0 C 79 % 1020,7 hPa 0,0 l/m 0 min 0 min 0,0 UV-I 0 W/m 0,0 km/h (0 Bft)
29.04.2013 23:40 6,3 C 4,0 C 80 % 1020,8 hPa 0,0 l/m 0 min 0 min 0,0 UV-I 0 W/m 0,0 km/h (0 Bft)
29.04.2013 23:42 6,3 C 4,0 C 80 % 1020,7 hPa 0,0 l/m 0 min 0 min 0,0 UV-I 0 W/m 0,0 km/h (0 Bft)
29.04.2013 23:44 6,3 C 4,0 C 80 % 1020,8 hPa 0,0 l/m 0 min 0 min 0,0 UV-I 0 W/m 0,0 km/h (0 Bft)
29.04.2013 23:46 6,2 C 4,0 C 80 % 1020,7 hPa 0,0 l/m 0 min 0 min 0,0 UV-I 0 W/m 0,0 km/h (0 Bft)
29.04.2013 23:48 6,2 C 4,0 C 80 % 1020,7 hPa 0,0 l/m 0 min 0 min 0,0 UV-I 0 W/m 0,0 km/h (0 Bft)
29.04.2013 23:50 6,2 C 4,0 C 80 % 1020,7 hPa 0,0 l/m 0 min 0 min 0,0 UV-I 0 W/m 0,0 km/h (0 Bft)
29.04.2013 23:52 6,2 C 4,0 C 80 % 1020,8 hPa 0,0 l/m 0 min 0 min 0,0 UV-I 0 W/m 0,0 km/h (0 Bft)
29.04.2013 23:54 6,1 C 4,0 C 80 % 1020,7 hPa 0,0 l/m 0 min 0 min 0,0 UV-I 0 W/m 0,0 km/h (0 Bft)
29.04.2013 23:56 6,1 C 4,0 C 80 % 1020,7 hPa 0,0 l/m 0 min 0 min 0,0 UV-I 0 W/m 0,0 km/h (0 Bft)
29.04.2013 23:58 6,1 C 4,0 C 80 % 1020,7 hPa 0,0 l/m 0 min 0 min 0,0 UV-I 0 W/m 0,0 km/h (0 Bft)
_ Min-Zeit 07:08 23:12 10:50 04:32 - - - - - 00:00
Minimum _ 5,7 C 4,0 C 53 % 1013,9 hPa - - - - - 0,0 km/h (0 Bft)
_ Max-Zeit 16:02 15:06 06:52 23:22 00:00 09:40 13:04 13:10 14:46 12:08
Maximum _ 14,8 C 16,2 C 90 % 1020,8 hPa 0,0 l/m 2 min 2 min 3,3 UV-I 1072 W/m 38,6 km/h
W (5 Bft)
Durchschnitt _ 9,6 C 8,7 C 72 % 1016,5 hPa #0,0 l/m #1:04 h #2 min. 1,2 UV-I 181 W/m 8,2 km/h (2 Bft)
© 2013 W. Hausmann